<?xml version="1.0" encoding="UTF-8" standalone="no" ?>
<gpx xmlns="http://www.topografix.com/GPX/1/1" xmlns:xsi="http://www.w3.org/2001/XMLSchema-instance" xsi:schemaLocation="http://www.topografix.com/GPX/1/1 http://www.topografix.com/GPX/1/1/gpx.xsd" version="1.1" creator="VisuGPX - https://www.visugpx.com">
  <metadata>
    <name>Grand Ventron-lac des corbeaux</name>
    <desc><![CDATA[24 km et 1000m de dénivelé]]></desc>
  </metadata>
  <trk>
    <name><![CDATA[Grand Ventron-lac des corbeaux_1]]></name>
    <trkseg>
      <trkpt lat="47.95956" lon="6.92423">
        <ele>1194</ele>
        <time>2015-08-30T08:28:26.543Z</time>
      </trkpt>
      <trkpt lat="47.95959" lon="6.92443">
        <ele>1195</ele>
        <time>2015-08-30T08:28:45.54Z</time>
      </trkpt>
      <trkpt lat="47.9595" lon="6.92471">
        <ele>1195</ele>
        <time>2015-08-30T08:29:04.543Z</time>
      </trkpt>
      <trkpt lat="47.95946" lon="6.92504">
        <ele>1196</ele>
        <time>2015-08-30T08:29:49.55Z</time>
      </trkpt>
      <trkpt lat="47.95945" lon="6.92534">
        <ele>1196</ele>
        <time>2015-08-30T08:30:49.561Z</time>
      </trkpt>
      <trkpt lat="47.95945" lon="6.92534">
        <ele>1196</ele>
        <time>2015-08-30T08:31:50.554Z</time>
      </trkpt>
      <trkpt lat="47.95955" lon="6.9255">
        <ele>1196</ele>
        <time>2015-08-30T08:32:49.551Z</time>
      </trkpt>
      <trkpt lat="47.95972" lon="6.9255">
        <ele>1195</ele>
        <time>2015-08-30T08:33:02.555Z</time>
      </trkpt>
      <trkpt lat="47.96009" lon="6.92553">
        <ele>1191</ele>
        <time>2015-08-30T08:33:28.55Z</time>
      </trkpt>
      <trkpt lat="47.96045" lon="6.92577">
        <ele>1189</ele>
        <time>2015-08-30T08:33:58.549Z</time>
      </trkpt>
      <trkpt lat="47.96071" lon="6.92584">
        <ele>1183</ele>
        <time>2015-08-30T08:34:23.549Z</time>
      </trkpt>
      <trkpt lat="47.96071" lon="6.92605">
        <ele>1182</ele>
        <time>2015-08-30T08:34:36.55Z</time>
      </trkpt>
      <trkpt lat="47.96083" lon="6.92618">
        <ele>1181</ele>
        <time>2015-08-30T08:34:46.55Z</time>
      </trkpt>
      <trkpt lat="47.9609" lon="6.92639">
        <ele>1175</ele>
        <time>2015-08-30T08:34:56.55Z</time>
      </trkpt>
      <trkpt lat="47.96101" lon="6.92662">
        <ele>1175</ele>
        <time>2015-08-30T08:35:09.55Z</time>
      </trkpt>
      <trkpt lat="47.96136" lon="6.92717">
        <ele>1168</ele>
        <time>2015-08-30T08:35:52.55Z</time>
      </trkpt>
      <trkpt lat="47.96142" lon="6.92737">
        <ele>1168</ele>
        <time>2015-08-30T08:36:02.55Z</time>
      </trkpt>
      <trkpt lat="47.96164" lon="6.92791">
        <ele>1161</ele>
        <time>2015-08-30T08:36:32.551Z</time>
      </trkpt>
      <trkpt lat="47.96175" lon="6.92806">
        <ele>1161</ele>
        <time>2015-08-30T08:36:45.551Z</time>
      </trkpt>
      <trkpt lat="47.96189" lon="6.92815">
        <ele>1161</ele>
        <time>2015-08-30T08:36:54.548Z</time>
      </trkpt>
      <trkpt lat="47.96211" lon="6.92828">
        <ele>1159</ele>
        <time>2015-08-30T08:37:12.548Z</time>
      </trkpt>
      <trkpt lat="47.96225" lon="6.9282">
        <ele>1157</ele>
        <time>2015-08-30T08:37:27.548Z</time>
      </trkpt>
      <trkpt lat="47.96241" lon="6.92826">
        <ele>1155</ele>
        <time>2015-08-30T08:37:36.548Z</time>
      </trkpt>
      <trkpt lat="47.96267" lon="6.92826">
        <ele>1150</ele>
        <time>2015-08-30T08:38:06.545Z</time>
      </trkpt>
      <trkpt lat="47.96279" lon="6.92817">
        <ele>1149</ele>
        <time>2015-08-30T08:38:15.545Z</time>
      </trkpt>
      <trkpt lat="47.96338" lon="6.92817">
        <ele>1141</ele>
        <time>2015-08-30T08:39:02.555Z</time>
      </trkpt>
      <trkpt lat="47.96362" lon="6.9283">
        <ele>1140</ele>
        <time>2015-08-30T08:39:29.571Z</time>
      </trkpt>
      <trkpt lat="47.96411" lon="6.92837">
        <ele>1134</ele>
        <time>2015-08-30T08:40:02.57Z</time>
      </trkpt>
      <trkpt lat="47.96426" lon="6.92841">
        <ele>1132</ele>
        <time>2015-08-30T08:40:18.549Z</time>
      </trkpt>
      <trkpt lat="47.96445" lon="6.92842">
        <ele>1131</ele>
        <time>2015-08-30T08:40:27.555Z</time>
      </trkpt>
      <trkpt lat="47.96497" lon="6.92836">
        <ele>1127</ele>
        <time>2015-08-30T08:40:57.56Z</time>
      </trkpt>
      <trkpt lat="47.96543" lon="6.92834">
        <ele>1125</ele>
        <time>2015-08-30T08:41:40.553Z</time>
      </trkpt>
      <trkpt lat="47.96585" lon="6.92865">
        <ele>1124</ele>
        <time>2015-08-30T08:42:22.559Z</time>
      </trkpt>
      <trkpt lat="47.96622" lon="6.92889">
        <ele>1124</ele>
        <time>2015-08-30T08:43:02.55Z</time>
      </trkpt>
      <trkpt lat="47.96656" lon="6.9291">
        <ele>1124</ele>
        <time>2015-08-30T08:43:51.555Z</time>
      </trkpt>
      <trkpt lat="47.96695" lon="6.92951">
        <ele>1115</ele>
        <time>2015-08-30T08:44:34.549Z</time>
      </trkpt>
      <trkpt lat="47.96715" lon="6.9297">
        <ele>1113</ele>
        <time>2015-08-30T08:44:55.553Z</time>
      </trkpt>
      <trkpt lat="47.96728" lon="6.93018">
        <ele>1107</ele>
        <time>2015-08-30T08:45:30.549Z</time>
      </trkpt>
      <trkpt lat="47.96741" lon="6.93035">
        <ele>1106</ele>
        <time>2015-08-30T08:45:47.549Z</time>
      </trkpt>
      <trkpt lat="47.96737" lon="6.9307">
        <ele>1105</ele>
        <time>2015-08-30T08:46:47.554Z</time>
      </trkpt>
      <trkpt lat="47.96733" lon="6.93085">
        <ele>1099</ele>
        <time>2015-08-30T08:47:47.558Z</time>
      </trkpt>
      <trkpt lat="47.96744" lon="6.93112">
        <ele>1095</ele>
        <time>2015-08-30T08:48:48.543Z</time>
      </trkpt>
      <trkpt lat="47.96757" lon="6.93127">
        <ele>1088</ele>
        <time>2015-08-30T08:49:11.539Z</time>
      </trkpt>
      <trkpt lat="47.96769" lon="6.93154">
        <ele>1085</ele>
        <time>2015-08-30T08:50:11.54Z</time>
      </trkpt>
      <trkpt lat="47.96769" lon="6.93121">
        <ele>1089</ele>
        <time>2015-08-30T08:50:47.538Z</time>
      </trkpt>
      <trkpt lat="47.96768" lon="6.93067">
        <ele>1099</ele>
        <time>2015-08-30T08:51:35.558Z</time>
      </trkpt>
      <trkpt lat="47.968" lon="6.93032">
        <ele>1096</ele>
        <time>2015-08-30T08:52:36.545Z</time>
      </trkpt>
      <trkpt lat="47.96783" lon="6.93055">
        <ele>1097</ele>
        <time>2015-08-30T08:52:58.545Z</time>
      </trkpt>
      <trkpt lat="47.96794" lon="6.93072">
        <ele>1095</ele>
        <time>2015-08-30T08:53:05.546Z</time>
      </trkpt>
      <trkpt lat="47.96809" lon="6.93075">
        <ele>1091</ele>
        <time>2015-08-30T08:53:12.55Z</time>
      </trkpt>
      <trkpt lat="47.96853" lon="6.93058">
        <ele>1082</ele>
        <time>2015-08-30T08:53:57.538Z</time>
      </trkpt>
      <trkpt lat="47.96866" lon="6.93039">
        <ele>1082</ele>
        <time>2015-08-30T08:54:04.539Z</time>
      </trkpt>
      <trkpt lat="47.96886" lon="6.93015">
        <ele>1082</ele>
        <time>2015-08-30T08:54:41.536Z</time>
      </trkpt>
      <trkpt lat="47.96895" lon="6.93035">
        <ele>1081</ele>
        <time>2015-08-30T08:54:52.536Z</time>
      </trkpt>
      <trkpt lat="47.96907" lon="6.93047">
        <ele>1080</ele>
        <time>2015-08-30T08:55:09.54Z</time>
      </trkpt>
      <trkpt lat="47.96932" lon="6.93094">
        <ele>1071</ele>
        <time>2015-08-30T08:55:44.538Z</time>
      </trkpt>
      <trkpt lat="47.96965" lon="6.93158">
        <ele>1067</ele>
        <time>2015-08-30T08:56:15.538Z</time>
      </trkpt>
      <trkpt lat="47.96983" lon="6.93171">
        <ele>1058</ele>
        <time>2015-08-30T08:56:51.554Z</time>
      </trkpt>
      <trkpt lat="47.96999" lon="6.93165">
        <ele>1063</ele>
        <time>2015-08-30T08:57:15.558Z</time>
      </trkpt>
      <trkpt lat="47.97036" lon="6.93177">
        <ele>1053</ele>
        <time>2015-08-30T08:57:35.544Z</time>
      </trkpt>
      <trkpt lat="47.9705" lon="6.93169">
        <ele>1052</ele>
        <time>2015-08-30T08:57:44.543Z</time>
      </trkpt>
      <trkpt lat="47.97077" lon="6.93167">
        <ele>1052</ele>
        <time>2015-08-30T08:58:10.548Z</time>
      </trkpt>
      <trkpt lat="47.97094" lon="6.93175">
        <ele>1048</ele>
        <time>2015-08-30T08:58:19.543Z</time>
      </trkpt>
      <trkpt lat="47.97128" lon="6.93209">
        <ele>1040</ele>
        <time>2015-08-30T08:58:51.536Z</time>
      </trkpt>
      <trkpt lat="47.97146" lon="6.93268">
        <ele>1030</ele>
        <time>2015-08-30T08:59:21.658Z</time>
      </trkpt>
      <trkpt lat="47.97146" lon="6.93339">
        <ele>1023</ele>
        <time>2015-08-30T09:00:05.54Z</time>
      </trkpt>
      <trkpt lat="47.97146" lon="6.9336">
        <ele>1022</ele>
        <time>2015-08-30T09:00:13.54Z</time>
      </trkpt>
      <trkpt lat="47.97132" lon="6.93386">
        <ele>1020</ele>
        <time>2015-08-30T09:00:26.56Z</time>
      </trkpt>
      <trkpt lat="47.97148" lon="6.93379">
        <ele>1020</ele>
        <time>2015-08-30T09:01:27.54Z</time>
      </trkpt>
      <trkpt lat="47.97148" lon="6.93379">
        <ele>1020</ele>
        <time>2015-08-30T09:02:28.535Z</time>
      </trkpt>
      <trkpt lat="47.97159" lon="6.93363">
        <ele>1022</ele>
        <time>2015-08-30T09:02:58.534Z</time>
      </trkpt>
      <trkpt lat="47.97143" lon="6.93344">
        <ele>1023</ele>
        <time>2015-08-30T09:03:04.535Z</time>
      </trkpt>
      <trkpt lat="47.97156" lon="6.93339">
        <ele>1024</ele>
        <time>2015-08-30T09:03:08.536Z</time>
      </trkpt>
      <trkpt lat="47.97161" lon="6.93309">
        <ele>1028</ele>
        <time>2015-08-30T09:03:23.549Z</time>
      </trkpt>
      <trkpt lat="47.97161" lon="6.93289">
        <ele>1029</ele>
        <time>2015-08-30T09:03:34.535Z</time>
      </trkpt>
      <trkpt lat="47.97165" lon="6.93269">
        <ele>1029</ele>
        <time>2015-08-30T09:03:44.544Z</time>
      </trkpt>
      <trkpt lat="47.97171" lon="6.93249">
        <ele>1027</ele>
        <time>2015-08-30T09:03:56.539Z</time>
      </trkpt>
      <trkpt lat="47.9719" lon="6.93241">
        <ele>1027</ele>
        <time>2015-08-30T09:04:23.536Z</time>
      </trkpt>
      <trkpt lat="47.97205" lon="6.93243">
        <ele>1026</ele>
        <time>2015-08-30T09:04:26.54Z</time>
      </trkpt>
      <trkpt lat="47.97246" lon="6.93231">
        <ele>1022</ele>
        <time>2015-08-30T09:05:26.546Z</time>
      </trkpt>
      <trkpt lat="47.97293" lon="6.93225">
        <ele>1019</ele>
        <time>2015-08-30T09:05:57.529Z</time>
      </trkpt>
      <trkpt lat="47.97305" lon="6.93214">
        <ele>1019</ele>
        <time>2015-08-30T09:06:06.54Z</time>
      </trkpt>
      <trkpt lat="47.97333" lon="6.93194">
        <ele>1018</ele>
        <time>2015-08-30T09:06:32.533Z</time>
      </trkpt>
      <trkpt lat="47.97348" lon="6.93199">
        <ele>1012</ele>
        <time>2015-08-30T09:06:36.524Z</time>
      </trkpt>
      <trkpt lat="47.97356" lon="6.93215">
        <ele>1012</ele>
        <time>2015-08-30T09:06:49.525Z</time>
      </trkpt>
      <trkpt lat="47.97365" lon="6.93234">
        <ele>1012</ele>
        <time>2015-08-30T09:07:05.529Z</time>
      </trkpt>
      <trkpt lat="47.9736" lon="6.93254">
        <ele>1016</ele>
        <time>2015-08-30T09:07:18.531Z</time>
      </trkpt>
      <trkpt lat="47.97373" lon="6.93268">
        <ele>1014</ele>
        <time>2015-08-30T09:07:26.529Z</time>
      </trkpt>
      <trkpt lat="47.97416" lon="6.93302">
        <ele>1015</ele>
        <time>2015-08-30T09:07:59.538Z</time>
      </trkpt>
      <trkpt lat="47.97442" lon="6.9332">
        <ele>1007</ele>
        <time>2015-08-30T09:08:14.525Z</time>
      </trkpt>
      <trkpt lat="47.97447" lon="6.93341">
        <ele>1013</ele>
        <time>2015-08-30T09:08:28.549Z</time>
      </trkpt>
      <trkpt lat="47.97461" lon="6.93393">
        <ele>1013</ele>
        <time>2015-08-30T09:08:57.525Z</time>
      </trkpt>
      <trkpt lat="47.97473" lon="6.93409">
        <ele>1013</ele>
        <time>2015-08-30T09:09:03.526Z</time>
      </trkpt>
      <trkpt lat="47.9752" lon="6.93467">
        <ele>1017</ele>
        <time>2015-08-30T09:09:48.558Z</time>
      </trkpt>
      <trkpt lat="47.97523" lon="6.93487">
        <ele>1019</ele>
        <time>2015-08-30T09:10:05.52Z</time>
      </trkpt>
      <trkpt lat="47.97528" lon="6.93506">
        <ele>1028</ele>
        <time>2015-08-30T09:10:17.519Z</time>
      </trkpt>
      <trkpt lat="47.97551" lon="6.93548">
        <ele>1031</ele>
        <time>2015-08-30T09:10:38.52Z</time>
      </trkpt>
      <trkpt lat="47.97568" lon="6.93556">
        <ele>1031</ele>
        <time>2015-08-30T09:10:51.53Z</time>
      </trkpt>
      <trkpt lat="47.97585" lon="6.93554">
        <ele>1030</ele>
        <time>2015-08-30T09:11:00.539Z</time>
      </trkpt>
      <trkpt lat="47.97608" lon="6.93533">
        <ele>1027</ele>
        <time>2015-08-30T09:11:21.52Z</time>
      </trkpt>
      <trkpt lat="47.97629" lon="6.93511">
        <ele>1025</ele>
        <time>2015-08-30T09:11:42.519Z</time>
      </trkpt>
      <trkpt lat="47.97688" lon="6.93492">
        <ele>1020</ele>
        <time>2015-08-30T09:12:15.528Z</time>
      </trkpt>
      <trkpt lat="47.97703" lon="6.93493">
        <ele>1022</ele>
        <time>2015-08-30T09:12:22.526Z</time>
      </trkpt>
      <trkpt lat="47.97719" lon="6.93479">
        <ele>1023</ele>
        <time>2015-08-30T09:12:31.528Z</time>
      </trkpt>
      <trkpt lat="47.97718" lon="6.93447">
        <ele>1018</ele>
        <time>2015-08-30T09:12:52.515Z</time>
      </trkpt>
      <trkpt lat="47.97736" lon="6.93448">
        <ele>1020</ele>
        <time>2015-08-30T09:12:56.519Z</time>
      </trkpt>
      <trkpt lat="47.97753" lon="6.9345">
        <ele>1028</ele>
        <time>2015-08-30T09:12:58.516Z</time>
      </trkpt>
      <trkpt lat="47.97741" lon="6.93429">
        <ele>1017</ele>
        <time>2015-08-30T09:13:03.516Z</time>
      </trkpt>
      <trkpt lat="47.97757" lon="6.93426">
        <ele>1022</ele>
        <time>2015-08-30T09:13:13.516Z</time>
      </trkpt>
      <trkpt lat="47.97805" lon="6.93397">
        <ele>1016</ele>
        <time>2015-08-30T09:13:55.514Z</time>
      </trkpt>
      <trkpt lat="47.97846" lon="6.93404">
        <ele>1020</ele>
        <time>2015-08-30T09:14:15.52Z</time>
      </trkpt>
      <trkpt lat="47.97886" lon="6.93421">
        <ele>1028</ele>
        <time>2015-08-30T09:14:52.501Z</time>
      </trkpt>
      <trkpt lat="47.97904" lon="6.93471">
        <ele>1033</ele>
        <time>2015-08-30T09:15:26.503Z</time>
      </trkpt>
      <trkpt lat="47.97924" lon="6.93532">
        <ele>1033</ele>
        <time>2015-08-30T09:16:10.504Z</time>
      </trkpt>
      <trkpt lat="47.97945" lon="6.93584">
        <ele>1041</ele>
        <time>2015-08-30T09:16:44.501Z</time>
      </trkpt>
      <trkpt lat="47.97947" lon="6.93607">
        <ele>1041</ele>
        <time>2015-08-30T09:16:57.503Z</time>
      </trkpt>
      <trkpt lat="47.97957" lon="6.9362">
        <ele>1039</ele>
        <time>2015-08-30T09:17:03.503Z</time>
      </trkpt>
      <trkpt lat="47.97957" lon="6.93647">
        <ele>1041</ele>
        <time>2015-08-30T09:17:23.504Z</time>
      </trkpt>
      <trkpt lat="47.97948" lon="6.93665">
        <ele>1044</ele>
        <time>2015-08-30T09:17:29.503Z</time>
      </trkpt>
      <trkpt lat="47.97952" lon="6.9369">
        <ele>1048</ele>
        <time>2015-08-30T09:17:42.504Z</time>
      </trkpt>
      <trkpt lat="47.97961" lon="6.93708">
        <ele>1046</ele>
        <time>2015-08-30T09:17:51.503Z</time>
      </trkpt>
      <trkpt lat="47.97956" lon="6.93731">
        <ele>1048</ele>
        <time>2015-08-30T09:18:06.504Z</time>
      </trkpt>
      <trkpt lat="47.97945" lon="6.9378">
        <ele>1055</ele>
        <time>2015-08-30T09:18:34.503Z</time>
      </trkpt>
      <trkpt lat="47.97946" lon="6.93805">
        <ele>1056</ele>
        <time>2015-08-30T09:18:51.504Z</time>
      </trkpt>
      <trkpt lat="47.97948" lon="6.9385">
        <ele>1059</ele>
        <time>2015-08-30T09:19:18.503Z</time>
      </trkpt>
      <trkpt lat="47.97945" lon="6.93873">
        <ele>1060</ele>
        <time>2015-08-30T09:19:27.503Z</time>
      </trkpt>
      <trkpt lat="47.97954" lon="6.93916">
        <ele>1060</ele>
        <time>2015-08-30T09:19:52.501Z</time>
      </trkpt>
      <trkpt lat="47.97949" lon="6.93936">
        <ele>1064</ele>
        <time>2015-08-30T09:20:00.501Z</time>
      </trkpt>
      <trkpt lat="47.97959" lon="6.93964">
        <ele>1064</ele>
        <time>2015-08-30T09:20:16.505Z</time>
      </trkpt>
      <trkpt lat="47.97963" lon="6.94004">
        <ele>1070</ele>
        <time>2015-08-30T09:20:37.5Z</time>
      </trkpt>
      <trkpt lat="47.97973" lon="6.94025">
        <ele>1070</ele>
        <time>2015-08-30T09:20:47.501Z</time>
      </trkpt>
      <trkpt lat="47.97981" lon="6.94043">
        <ele>1071</ele>
        <time>2015-08-30T09:21:03.504Z</time>
      </trkpt>
      <trkpt lat="47.97996" lon="6.94046">
        <ele>1070</ele>
        <time>2015-08-30T09:21:06.506Z</time>
      </trkpt>
      <trkpt lat="47.9802" lon="6.94069">
        <ele>1069</ele>
        <time>2015-08-30T09:21:21.5Z</time>
      </trkpt>
      <trkpt lat="47.98028" lon="6.94052">
        <ele>1067</ele>
        <time>2015-08-30T09:21:40.503Z</time>
      </trkpt>
      <trkpt lat="47.98045" lon="6.94036">
        <ele>1066</ele>
        <time>2015-08-30T09:21:49.505Z</time>
      </trkpt>
      <trkpt lat="47.98063" lon="6.94014">
        <ele>1064</ele>
        <time>2015-08-30T09:22:09.5Z</time>
      </trkpt>
      <trkpt lat="47.98082" lon="6.94015">
        <ele>1064</ele>
        <time>2015-08-30T09:22:20.501Z</time>
      </trkpt>
      <trkpt lat="47.98096" lon="6.94012">
        <ele>1066</ele>
        <time>2015-08-30T09:22:39.504Z</time>
      </trkpt>
      <trkpt lat="47.98125" lon="6.9403">
        <ele>1071</ele>
        <time>2015-08-30T09:23:03.503Z</time>
      </trkpt>
      <trkpt lat="47.98142" lon="6.94034">
        <ele>1072</ele>
        <time>2015-08-30T09:23:19.504Z</time>
      </trkpt>
      <trkpt lat="47.98157" lon="6.94045">
        <ele>1073</ele>
        <time>2015-08-30T09:23:33.51Z</time>
      </trkpt>
      <trkpt lat="47.98189" lon="6.94076">
        <ele>1078</ele>
        <time>2015-08-30T09:24:07.503Z</time>
      </trkpt>
      <trkpt lat="47.98199" lon="6.94092">
        <ele>1087</ele>
        <time>2015-08-30T09:24:19.503Z</time>
      </trkpt>
      <trkpt lat="47.98212" lon="6.94103">
        <ele>1088</ele>
        <time>2015-08-30T09:24:31.504Z</time>
      </trkpt>
      <trkpt lat="47.98251" lon="6.94132">
        <ele>1090</ele>
        <time>2015-08-30T09:25:12.503Z</time>
      </trkpt>
      <trkpt lat="47.98265" lon="6.94139">
        <ele>1091</ele>
        <time>2015-08-30T09:25:18.503Z</time>
      </trkpt>
      <trkpt lat="47.98317" lon="6.94142">
        <ele>1090</ele>
        <time>2015-08-30T09:26:04.503Z</time>
      </trkpt>
      <trkpt lat="47.98357" lon="6.94148">
        <ele>1090</ele>
        <time>2015-08-30T09:26:32.505Z</time>
      </trkpt>
      <trkpt lat="47.98408" lon="6.94171">
        <ele>1093</ele>
        <time>2015-08-30T09:27:09.503Z</time>
      </trkpt>
      <trkpt lat="47.98445" lon="6.94187">
        <ele>1090</ele>
        <time>2015-08-30T09:27:38.503Z</time>
      </trkpt>
      <trkpt lat="47.98476" lon="6.9421">
        <ele>1089</ele>
        <time>2015-08-30T09:28:03.504Z</time>
      </trkpt>
      <trkpt lat="47.98487" lon="6.94234">
        <ele>1090</ele>
        <time>2015-08-30T09:28:21.503Z</time>
      </trkpt>
      <trkpt lat="47.98497" lon="6.94256">
        <ele>1090</ele>
        <time>2015-08-30T09:28:34.503Z</time>
      </trkpt>
      <trkpt lat="47.98508" lon="6.9427">
        <ele>1089</ele>
        <time>2015-08-30T09:28:42.504Z</time>
      </trkpt>
      <trkpt lat="47.98515" lon="6.94291">
        <ele>1088</ele>
        <time>2015-08-30T09:28:56.504Z</time>
      </trkpt>
      <trkpt lat="47.98528" lon="6.94288">
        <ele>1088</ele>
        <time>2015-08-30T09:29:04.503Z</time>
      </trkpt>
      <trkpt lat="47.98538" lon="6.94303">
        <ele>1088</ele>
        <time>2015-08-30T09:29:12.501Z</time>
      </trkpt>
      <trkpt lat="47.98574" lon="6.94347">
        <ele>1089</ele>
        <time>2015-08-30T09:29:48.506Z</time>
      </trkpt>
      <trkpt lat="47.98604" lon="6.94392">
        <ele>1091</ele>
        <time>2015-08-30T09:30:18.503Z</time>
      </trkpt>
      <trkpt lat="47.98617" lon="6.94405">
        <ele>1091</ele>
        <time>2015-08-30T09:30:32.505Z</time>
      </trkpt>
      <trkpt lat="47.98655" lon="6.94439">
        <ele>1092</ele>
        <time>2015-08-30T09:31:08.503Z</time>
      </trkpt>
      <trkpt lat="47.98697" lon="6.94463">
        <ele>1097</ele>
        <time>2015-08-30T09:31:37.505Z</time>
      </trkpt>
      <trkpt lat="47.98711" lon="6.9449">
        <ele>1098</ele>
        <time>2015-08-30T09:31:56.503Z</time>
      </trkpt>
      <trkpt lat="47.98721" lon="6.94504">
        <ele>1097</ele>
        <time>2015-08-30T09:32:04.505Z</time>
      </trkpt>
      <trkpt lat="47.98731" lon="6.94519">
        <ele>1097</ele>
        <time>2015-08-30T09:32:16.505Z</time>
      </trkpt>
      <trkpt lat="47.98754" lon="6.94523">
        <ele>1102</ele>
        <time>2015-08-30T09:32:30.505Z</time>
      </trkpt>
      <trkpt lat="47.98788" lon="6.94529">
        <ele>1102</ele>
        <time>2015-08-30T09:32:55.503Z</time>
      </trkpt>
      <trkpt lat="47.98825" lon="6.94514">
        <ele>1103</ele>
        <time>2015-08-30T09:33:55.509Z</time>
      </trkpt>
      <trkpt lat="47.98821" lon="6.94516">
        <ele>1103</ele>
        <time>2015-08-30T09:34:56.505Z</time>
      </trkpt>
      <trkpt lat="47.98818" lon="6.9452">
        <ele>1103</ele>
        <time>2015-08-30T09:35:56.509Z</time>
      </trkpt>
      <trkpt lat="47.98818" lon="6.94523">
        <ele>1103</ele>
        <time>2015-08-30T09:36:56.526Z</time>
      </trkpt>
      <trkpt lat="47.98829" lon="6.94521">
        <ele>1103</ele>
        <time>2015-08-30T09:37:57.509Z</time>
      </trkpt>
      <trkpt lat="47.98832" lon="6.94521">
        <ele>1103</ele>
        <time>2015-08-30T09:38:57.509Z</time>
      </trkpt>
      <trkpt lat="47.98832" lon="6.94522">
        <ele>1103</ele>
        <time>2015-08-30T09:39:57.511Z</time>
      </trkpt>
      <trkpt lat="47.98832" lon="6.94518">
        <ele>1103</ele>
        <time>2015-08-30T09:40:58.509Z</time>
      </trkpt>
      <trkpt lat="47.9886" lon="6.94501">
        <ele>1110</ele>
        <time>2015-08-30T09:41:58.509Z</time>
      </trkpt>
      <trkpt lat="47.98895" lon="6.94519">
        <ele>1116</ele>
        <time>2015-08-30T09:42:59.506Z</time>
      </trkpt>
      <trkpt lat="47.98909" lon="6.94543">
        <ele>1115</ele>
        <time>2015-08-30T09:43:15.506Z</time>
      </trkpt>
      <trkpt lat="47.9893" lon="6.94544">
        <ele>1130</ele>
        <time>2015-08-30T09:44:04.505Z</time>
      </trkpt>
      <trkpt lat="47.98939" lon="6.94562">
        <ele>1129</ele>
        <time>2015-08-30T09:44:11.505Z</time>
      </trkpt>
      <trkpt lat="47.98983" lon="6.94592">
        <ele>1131</ele>
        <time>2015-08-30T09:44:55.506Z</time>
      </trkpt>
      <trkpt lat="47.99005" lon="6.94604">
        <ele>1145</ele>
        <time>2015-08-30T09:45:17.508Z</time>
      </trkpt>
      <trkpt lat="47.9901" lon="6.94575">
        <ele>1149</ele>
        <time>2015-08-30T09:46:17.51Z</time>
      </trkpt>
      <trkpt lat="47.98997" lon="6.94563">
        <ele>1138</ele>
        <time>2015-08-30T09:47:08.514Z</time>
      </trkpt>
      <trkpt lat="47.98968" lon="6.9452">
        <ele>1137</ele>
        <time>2015-08-30T09:47:39.505Z</time>
      </trkpt>
      <trkpt lat="47.98965" lon="6.94489">
        <ele>1145</ele>
        <time>2015-08-30T09:47:54.506Z</time>
      </trkpt>
      <trkpt lat="47.98956" lon="6.94457">
        <ele>1145</ele>
        <time>2015-08-30T09:48:10.506Z</time>
      </trkpt>
      <trkpt lat="47.98956" lon="6.94435">
        <ele>1146</ele>
        <time>2015-08-30T09:48:22.505Z</time>
      </trkpt>
      <trkpt lat="47.98957" lon="6.94411">
        <ele>1151</ele>
        <time>2015-08-30T09:48:36.506Z</time>
      </trkpt>
      <trkpt lat="47.98956" lon="6.9439">
        <ele>1151</ele>
        <time>2015-08-30T09:48:47.506Z</time>
      </trkpt>
      <trkpt lat="47.98954" lon="6.94358">
        <ele>1151</ele>
        <time>2015-08-30T09:49:02.523Z</time>
      </trkpt>
      <trkpt lat="47.98948" lon="6.94292">
        <ele>1153</ele>
        <time>2015-08-30T09:49:31.509Z</time>
      </trkpt>
      <trkpt lat="47.98943" lon="6.94268">
        <ele>1152</ele>
        <time>2015-08-30T09:49:42.506Z</time>
      </trkpt>
      <trkpt lat="47.98944" lon="6.94236">
        <ele>1154</ele>
        <time>2015-08-30T09:49:58.506Z</time>
      </trkpt>
      <trkpt lat="47.98938" lon="6.94208">
        <ele>1154</ele>
        <time>2015-08-30T09:50:14.508Z</time>
      </trkpt>
      <trkpt lat="47.98936" lon="6.94178">
        <ele>1154</ele>
        <time>2015-08-30T09:50:30.506Z</time>
      </trkpt>
      <trkpt lat="47.98935" lon="6.94145">
        <ele>1154</ele>
        <time>2015-08-30T09:50:46.505Z</time>
      </trkpt>
      <trkpt lat="47.98933" lon="6.94115">
        <ele>1153</ele>
        <time>2015-08-30T09:51:02.505Z</time>
      </trkpt>
      <trkpt lat="47.98938" lon="6.94093">
        <ele>1152</ele>
        <time>2015-08-30T09:51:11.505Z</time>
      </trkpt>
      <trkpt lat="47.98943" lon="6.94066">
        <ele>1150</ele>
        <time>2015-08-30T09:51:24.505Z</time>
      </trkpt>
      <trkpt lat="47.98946" lon="6.94017">
        <ele>1148</ele>
        <time>2015-08-30T09:51:51.505Z</time>
      </trkpt>
      <trkpt lat="47.98953" lon="6.93978">
        <ele>1145</ele>
        <time>2015-08-30T09:52:11.513Z</time>
      </trkpt>
      <trkpt lat="47.98969" lon="6.93952">
        <ele>1146</ele>
        <time>2015-08-30T09:52:26.505Z</time>
      </trkpt>
      <trkpt lat="47.98985" lon="6.93929">
        <ele>1146</ele>
        <time>2015-08-30T09:52:41.504Z</time>
      </trkpt>
      <trkpt lat="47.98991" lon="6.93911">
        <ele>1146</ele>
        <time>2015-08-30T09:52:57.505Z</time>
      </trkpt>
      <trkpt lat="47.98991" lon="6.93878">
        <ele>1143</ele>
        <time>2015-08-30T09:53:11.503Z</time>
      </trkpt>
      <trkpt lat="47.98984" lon="6.93855">
        <ele>1142</ele>
        <time>2015-08-30T09:53:23.504Z</time>
      </trkpt>
      <trkpt lat="47.98978" lon="6.93834">
        <ele>1142</ele>
        <time>2015-08-30T09:53:33.505Z</time>
      </trkpt>
      <trkpt lat="47.98959" lon="6.93757">
        <ele>1137</ele>
        <time>2015-08-30T09:54:11.505Z</time>
      </trkpt>
      <trkpt lat="47.98961" lon="6.9371">
        <ele>1133</ele>
        <time>2015-08-30T09:54:31.506Z</time>
      </trkpt>
      <trkpt lat="47.98962" lon="6.9367">
        <ele>1133</ele>
        <time>2015-08-30T09:54:51.505Z</time>
      </trkpt>
      <trkpt lat="47.98948" lon="6.93538">
        <ele>1129</ele>
        <time>2015-08-30T09:55:51.509Z</time>
      </trkpt>
      <trkpt lat="47.98942" lon="6.93506">
        <ele>1129</ele>
        <time>2015-08-30T09:56:51.511Z</time>
      </trkpt>
      <trkpt lat="47.98939" lon="6.93486">
        <ele>1129</ele>
        <time>2015-08-30T09:57:03.513Z</time>
      </trkpt>
      <trkpt lat="47.98924" lon="6.93427">
        <ele>1130</ele>
        <time>2015-08-30T09:57:32.514Z</time>
      </trkpt>
      <trkpt lat="47.98908" lon="6.93354">
        <ele>1125</ele>
        <time>2015-08-30T09:58:09.53Z</time>
      </trkpt>
      <trkpt lat="47.98928" lon="6.93301">
        <ele>1124</ele>
        <time>2015-08-30T09:58:35.505Z</time>
      </trkpt>
      <trkpt lat="47.98911" lon="6.93266">
        <ele>1123</ele>
        <time>2015-08-30T09:59:08.506Z</time>
      </trkpt>
      <trkpt lat="47.98901" lon="6.93219">
        <ele>1117</ele>
        <time>2015-08-30T09:59:31.51Z</time>
      </trkpt>
      <trkpt lat="47.98901" lon="6.93185">
        <ele>1115</ele>
        <time>2015-08-30T09:59:48.504Z</time>
      </trkpt>
      <trkpt lat="47.98893" lon="6.93168">
        <ele>1114</ele>
        <time>2015-08-30T09:59:58.506Z</time>
      </trkpt>
      <trkpt lat="47.98892" lon="6.93147">
        <ele>1109</ele>
        <time>2015-08-30T10:00:08.504Z</time>
      </trkpt>
      <trkpt lat="47.98911" lon="6.93091">
        <ele>1105</ele>
        <time>2015-08-30T10:00:42.504Z</time>
      </trkpt>
      <trkpt lat="47.98941" lon="6.9304">
        <ele>1094</ele>
        <time>2015-08-30T10:01:21.514Z</time>
      </trkpt>
      <trkpt lat="47.98967" lon="6.93008">
        <ele>1091</ele>
        <time>2015-08-30T10:01:44.505Z</time>
      </trkpt>
      <trkpt lat="47.98979" lon="6.92986">
        <ele>1085</ele>
        <time>2015-08-30T10:01:59.505Z</time>
      </trkpt>
      <trkpt lat="47.98993" lon="6.92952">
        <ele>1083</ele>
        <time>2015-08-30T10:02:19.501Z</time>
      </trkpt>
      <trkpt lat="47.99004" lon="6.92935">
        <ele>1079</ele>
        <time>2015-08-30T10:02:27.504Z</time>
      </trkpt>
      <trkpt lat="47.99024" lon="6.92887">
        <ele>1076</ele>
        <time>2015-08-30T10:02:58.505Z</time>
      </trkpt>
      <trkpt lat="47.99037" lon="6.92862">
        <ele>1075</ele>
        <time>2015-08-30T10:03:18.505Z</time>
      </trkpt>
      <trkpt lat="47.99041" lon="6.92841">
        <ele>1075</ele>
        <time>2015-08-30T10:03:31.506Z</time>
      </trkpt>
      <trkpt lat="47.99038" lon="6.9282">
        <ele>1072</ele>
        <time>2015-08-30T10:03:39.504Z</time>
      </trkpt>
      <trkpt lat="47.99039" lon="6.92752">
        <ele>1070</ele>
        <time>2015-08-30T10:04:14.505Z</time>
      </trkpt>
      <trkpt lat="47.99037" lon="6.92686">
        <ele>1068</ele>
        <time>2015-08-30T10:05:14.505Z</time>
      </trkpt>
      <trkpt lat="47.99042" lon="6.92676">
        <ele>1068</ele>
        <time>2015-08-30T10:06:14.508Z</time>
      </trkpt>
      <trkpt lat="47.99043" lon="6.92652">
        <ele>1069</ele>
        <time>2015-08-30T10:07:14.506Z</time>
      </trkpt>
      <trkpt lat="47.9904" lon="6.92631">
        <ele>1069</ele>
        <time>2015-08-30T10:07:25.508Z</time>
      </trkpt>
      <trkpt lat="47.99035" lon="6.92597">
        <ele>1070</ele>
        <time>2015-08-30T10:07:41.505Z</time>
      </trkpt>
      <trkpt lat="47.99032" lon="6.92573">
        <ele>1072</ele>
        <time>2015-08-30T10:07:55.505Z</time>
      </trkpt>
      <trkpt lat="47.99029" lon="6.9253">
        <ele>1073</ele>
        <time>2015-08-30T10:08:21.505Z</time>
      </trkpt>
      <trkpt lat="47.99021" lon="6.925">
        <ele>1075</ele>
        <time>2015-08-30T10:08:38.504Z</time>
      </trkpt>
      <trkpt lat="47.99018" lon="6.9247">
        <ele>1077</ele>
        <time>2015-08-30T10:09:03.505Z</time>
      </trkpt>
      <trkpt lat="47.99015" lon="6.92437">
        <ele>1079</ele>
        <time>2015-08-30T10:09:20.505Z</time>
      </trkpt>
      <trkpt lat="47.98994" lon="6.92398">
        <ele>1077</ele>
        <time>2015-08-30T10:09:51.505Z</time>
      </trkpt>
      <trkpt lat="47.98965" lon="6.9237">
        <ele>1074</ele>
        <time>2015-08-30T10:10:35.506Z</time>
      </trkpt>
      <trkpt lat="47.98953" lon="6.9236">
        <ele>1073</ele>
        <time>2015-08-30T10:10:47.503Z</time>
      </trkpt>
      <trkpt lat="47.98938" lon="6.92343">
        <ele>1072</ele>
        <time>2015-08-30T10:11:03.506Z</time>
      </trkpt>
      <trkpt lat="47.98935" lon="6.92323">
        <ele>1069</ele>
        <time>2015-08-30T10:11:13.505Z</time>
      </trkpt>
      <trkpt lat="47.98932" lon="6.92298">
        <ele>1068</ele>
        <time>2015-08-30T10:11:26.506Z</time>
      </trkpt>
      <trkpt lat="47.98922" lon="6.92265">
        <ele>1067</ele>
        <time>2015-08-30T10:11:51.504Z</time>
      </trkpt>
      <trkpt lat="47.98915" lon="6.92223">
        <ele>1061</ele>
        <time>2015-08-30T10:12:16.503Z</time>
      </trkpt>
      <trkpt lat="47.9891" lon="6.92202">
        <ele>1060</ele>
        <time>2015-08-30T10:12:27.503Z</time>
      </trkpt>
      <trkpt lat="47.98891" lon="6.92197">
        <ele>1059</ele>
        <time>2015-08-30T10:13:17.505Z</time>
      </trkpt>
      <trkpt lat="47.9888" lon="6.92184">
        <ele>1059</ele>
        <time>2015-08-30T10:13:28.505Z</time>
      </trkpt>
      <trkpt lat="47.98866" lon="6.92179">
        <ele>1059</ele>
        <time>2015-08-30T10:13:54.505Z</time>
      </trkpt>
      <trkpt lat="47.98853" lon="6.92168">
        <ele>1059</ele>
        <time>2015-08-30T10:14:05.508Z</time>
      </trkpt>
      <trkpt lat="47.9884" lon="6.92162">
        <ele>1056</ele>
        <time>2015-08-30T10:14:21.504Z</time>
      </trkpt>
      <trkpt lat="47.98826" lon="6.92151">
        <ele>1057</ele>
        <time>2015-08-30T10:14:36.505Z</time>
      </trkpt>
      <trkpt lat="47.98813" lon="6.92144">
        <ele>1056</ele>
        <time>2015-08-30T10:14:54.505Z</time>
      </trkpt>
      <trkpt lat="47.98795" lon="6.92132">
        <ele>1056</ele>
        <time>2015-08-30T10:15:17.505Z</time>
      </trkpt>
      <trkpt lat="47.98778" lon="6.92128">
        <ele>1056</ele>
        <time>2015-08-30T10:15:30.505Z</time>
      </trkpt>
      <trkpt lat="47.98769" lon="6.92082">
        <ele>1059</ele>
        <time>2015-08-30T10:16:05.504Z</time>
      </trkpt>
      <trkpt lat="47.98765" lon="6.92062">
        <ele>1059</ele>
        <time>2015-08-30T10:16:20.505Z</time>
      </trkpt>
      <trkpt lat="47.98755" lon="6.92025">
        <ele>1061</ele>
        <time>2015-08-30T10:16:49.513Z</time>
      </trkpt>
      <trkpt lat="47.98743" lon="6.91975">
        <ele>1070</ele>
        <time>2015-08-30T10:17:50.506Z</time>
      </trkpt>
      <trkpt lat="47.98742" lon="6.91948">
        <ele>1071</ele>
        <time>2015-08-30T10:18:04.505Z</time>
      </trkpt>
      <trkpt lat="47.98733" lon="6.91921">
        <ele>1071</ele>
        <time>2015-08-30T10:18:41.506Z</time>
      </trkpt>
      <trkpt lat="47.98724" lon="6.91905">
        <ele>1071</ele>
        <time>2015-08-30T10:18:53.505Z</time>
      </trkpt>
      <trkpt lat="47.98719" lon="6.91884">
        <ele>1070</ele>
        <time>2015-08-30T10:19:06.511Z</time>
      </trkpt>
      <trkpt lat="47.98719" lon="6.9187">
        <ele>1070</ele>
        <time>2015-08-30T10:20:07.506Z</time>
      </trkpt>
      <trkpt lat="47.98715" lon="6.91866">
        <ele>1070</ele>
        <time>2015-08-30T10:21:08.508Z</time>
      </trkpt>
      <trkpt lat="47.98717" lon="6.9184">
        <ele>1069</ele>
        <time>2015-08-30T10:22:08.509Z</time>
      </trkpt>
      <trkpt lat="47.9871" lon="6.91822">
        <ele>1065</ele>
        <time>2015-08-30T10:23:05.505Z</time>
      </trkpt>
      <trkpt lat="47.98691" lon="6.9179">
        <ele>1065</ele>
        <time>2015-08-30T10:23:43.505Z</time>
      </trkpt>
      <trkpt lat="47.98667" lon="6.9176">
        <ele>1068</ele>
        <time>2015-08-30T10:24:19.505Z</time>
      </trkpt>
      <trkpt lat="47.98655" lon="6.91741">
        <ele>1067</ele>
        <time>2015-08-30T10:24:39.504Z</time>
      </trkpt>
      <trkpt lat="47.98642" lon="6.91729">
        <ele>1066</ele>
        <time>2015-08-30T10:24:58.511Z</time>
      </trkpt>
      <trkpt lat="47.98608" lon="6.91747">
        <ele>1066</ele>
        <time>2015-08-30T10:25:59.509Z</time>
      </trkpt>
      <trkpt lat="47.98618" lon="6.91732">
        <ele>1066</ele>
        <time>2015-08-30T10:26:27.506Z</time>
      </trkpt>
      <trkpt lat="47.98617" lon="6.91711">
        <ele>1065</ele>
        <time>2015-08-30T10:26:36.505Z</time>
      </trkpt>
      <trkpt lat="47.98606" lon="6.91699">
        <ele>1065</ele>
        <time>2015-08-30T10:26:49.504Z</time>
      </trkpt>
      <trkpt lat="47.98602" lon="6.91679">
        <ele>1065</ele>
        <time>2015-08-30T10:27:00.511Z</time>
      </trkpt>
      <trkpt lat="47.98588" lon="6.91634">
        <ele>1064</ele>
        <time>2015-08-30T10:27:25.51Z</time>
      </trkpt>
      <trkpt lat="47.98585" lon="6.91614">
        <ele>1064</ele>
        <time>2015-08-30T10:27:33.51Z</time>
      </trkpt>
      <trkpt lat="47.98575" lon="6.91598">
        <ele>1063</ele>
        <time>2015-08-30T10:27:45.508Z</time>
      </trkpt>
      <trkpt lat="47.9858" lon="6.91577">
        <ele>1064</ele>
        <time>2015-08-30T10:28:16.509Z</time>
      </trkpt>
      <trkpt lat="47.98579" lon="6.91555">
        <ele>1063</ele>
        <time>2015-08-30T10:28:26.51Z</time>
      </trkpt>
      <trkpt lat="47.9858" lon="6.915">
        <ele>1067</ele>
        <time>2015-08-30T10:29:00.506Z</time>
      </trkpt>
      <trkpt lat="47.98587" lon="6.91475">
        <ele>1069</ele>
        <time>2015-08-30T10:29:20.506Z</time>
      </trkpt>
      <trkpt lat="47.98599" lon="6.91459">
        <ele>1069</ele>
        <time>2015-08-30T10:29:32.508Z</time>
      </trkpt>
      <trkpt lat="47.98608" lon="6.91421">
        <ele>1070</ele>
        <time>2015-08-30T10:29:57.506Z</time>
      </trkpt>
      <trkpt lat="47.98612" lon="6.91394">
        <ele>1074</ele>
        <time>2015-08-30T10:30:23.506Z</time>
      </trkpt>
      <trkpt lat="47.98623" lon="6.91382">
        <ele>1075</ele>
        <time>2015-08-30T10:30:30.514Z</time>
      </trkpt>
      <trkpt lat="47.98627" lon="6.91359">
        <ele>1077</ele>
        <time>2015-08-30T10:30:46.505Z</time>
      </trkpt>
      <trkpt lat="47.98659" lon="6.91299">
        <ele>1085</ele>
        <time>2015-08-30T10:31:44.509Z</time>
      </trkpt>
      <trkpt lat="47.98688" lon="6.91248">
        <ele>1095</ele>
        <time>2015-08-30T10:32:34.508Z</time>
      </trkpt>
      <trkpt lat="47.987" lon="6.91228">
        <ele>1095</ele>
        <time>2015-08-30T10:33:01.51Z</time>
      </trkpt>
      <trkpt lat="47.98719" lon="6.91184">
        <ele>1098</ele>
        <time>2015-08-30T10:33:56.506Z</time>
      </trkpt>
      <trkpt lat="47.98723" lon="6.91163">
        <ele>1104</ele>
        <time>2015-08-30T10:34:14.509Z</time>
      </trkpt>
      <trkpt lat="47.98734" lon="6.91149">
        <ele>1104</ele>
        <time>2015-08-30T10:35:15.505Z</time>
      </trkpt>
      <trkpt lat="47.98727" lon="6.91132">
        <ele>1105</ele>
        <time>2015-08-30T10:35:45.505Z</time>
      </trkpt>
      <trkpt lat="47.98723" lon="6.9111">
        <ele>1106</ele>
        <time>2015-08-30T10:36:01.505Z</time>
      </trkpt>
      <trkpt lat="47.98718" lon="6.91089">
        <ele>1107</ele>
        <time>2015-08-30T10:36:12.505Z</time>
      </trkpt>
      <trkpt lat="47.98715" lon="6.91061">
        <ele>1106</ele>
        <time>2015-08-30T10:36:29.51Z</time>
      </trkpt>
      <trkpt lat="47.98713" lon="6.9104">
        <ele>1105</ele>
        <time>2015-08-30T10:37:29.51Z</time>
      </trkpt>
      <trkpt lat="47.98705" lon="6.91021">
        <ele>1104</ele>
        <time>2015-08-30T10:38:25.508Z</time>
      </trkpt>
      <trkpt lat="47.98675" lon="6.90961">
        <ele>1093</ele>
        <time>2015-08-30T10:38:59.505Z</time>
      </trkpt>
      <trkpt lat="47.98657" lon="6.90946">
        <ele>1096</ele>
        <time>2015-08-30T10:39:16.506Z</time>
      </trkpt>
      <trkpt lat="47.98616" lon="6.90928">
        <ele>1097</ele>
        <time>2015-08-30T10:39:50.508Z</time>
      </trkpt>
      <trkpt lat="47.98598" lon="6.90927">
        <ele>1097</ele>
        <time>2015-08-30T10:40:03.51Z</time>
      </trkpt>
      <trkpt lat="47.98578" lon="6.90928">
        <ele>1097</ele>
        <time>2015-08-30T10:40:17.529Z</time>
      </trkpt>
      <trkpt lat="47.98552" lon="6.90927">
        <ele>1096</ele>
        <time>2015-08-30T10:40:38.51Z</time>
      </trkpt>
      <trkpt lat="47.98537" lon="6.90913">
        <ele>1094</ele>
        <time>2015-08-30T10:40:46.509Z</time>
      </trkpt>
      <trkpt lat="47.98501" lon="6.90877">
        <ele>1094</ele>
        <time>2015-08-30T10:41:20.506Z</time>
      </trkpt>
      <trkpt lat="47.98482" lon="6.90871">
        <ele>1092</ele>
        <time>2015-08-30T10:41:34.505Z</time>
      </trkpt>
      <trkpt lat="47.98468" lon="6.90864">
        <ele>1091</ele>
        <time>2015-08-30T10:41:44.508Z</time>
      </trkpt>
      <trkpt lat="47.98423" lon="6.90842">
        <ele>1089</ele>
        <time>2015-08-30T10:42:19.514Z</time>
      </trkpt>
      <trkpt lat="47.9839" lon="6.90831">
        <ele>1085</ele>
        <time>2015-08-30T10:42:41.511Z</time>
      </trkpt>
      <trkpt lat="47.98373" lon="6.90825">
        <ele>1084</ele>
        <time>2015-08-30T10:42:55.519Z</time>
      </trkpt>
      <trkpt lat="47.98361" lon="6.90813">
        <ele>1083</ele>
        <time>2015-08-30T10:43:05.515Z</time>
      </trkpt>
      <trkpt lat="47.9836" lon="6.90817">
        <ele>1083</ele>
        <time>2015-08-30T10:44:05.519Z</time>
      </trkpt>
      <trkpt lat="47.98374" lon="6.90817">
        <ele>1084</ele>
        <time>2015-08-30T10:45:05.514Z</time>
      </trkpt>
      <trkpt lat="47.9839" lon="6.90817">
        <ele>1085</ele>
        <time>2015-08-30T10:45:14.51Z</time>
      </trkpt>
      <trkpt lat="47.98411" lon="6.9082">
        <ele>1087</ele>
        <time>2015-08-30T10:45:35.508Z</time>
      </trkpt>
      <trkpt lat="47.98426" lon="6.90831">
        <ele>1090</ele>
        <time>2015-08-30T10:45:44.508Z</time>
      </trkpt>
      <trkpt lat="47.9845" lon="6.90843">
        <ele>1090</ele>
        <time>2015-08-30T10:46:08.508Z</time>
      </trkpt>
      <trkpt lat="47.9847" lon="6.90854">
        <ele>1091</ele>
        <time>2015-08-30T10:46:20.511Z</time>
      </trkpt>
      <trkpt lat="47.98483" lon="6.90859">
        <ele>1092</ele>
        <time>2015-08-30T10:46:32.51Z</time>
      </trkpt>
      <trkpt lat="47.98501" lon="6.90868">
        <ele>1094</ele>
        <time>2015-08-30T10:46:41.511Z</time>
      </trkpt>
      <trkpt lat="47.98539" lon="6.90905">
        <ele>1094</ele>
        <time>2015-08-30T10:47:21.51Z</time>
      </trkpt>
      <trkpt lat="47.98551" lon="6.90918">
        <ele>1096</ele>
        <time>2015-08-30T10:47:30.51Z</time>
      </trkpt>
      <trkpt lat="47.98565" lon="6.90919">
        <ele>1096</ele>
        <time>2015-08-30T10:47:44.51Z</time>
      </trkpt>
      <trkpt lat="47.98587" lon="6.90922">
        <ele>1097</ele>
        <time>2015-08-30T10:47:57.51Z</time>
      </trkpt>
      <trkpt lat="47.98623" lon="6.90919">
        <ele>1096</ele>
        <time>2015-08-30T10:48:23.516Z</time>
      </trkpt>
      <trkpt lat="47.98642" lon="6.90931">
        <ele>1095</ele>
        <time>2015-08-30T10:48:38.508Z</time>
      </trkpt>
      <trkpt lat="47.98655" lon="6.90937">
        <ele>1094</ele>
        <time>2015-08-30T10:48:51.508Z</time>
      </trkpt>
      <trkpt lat="47.98677" lon="6.90956">
        <ele>1093</ele>
        <time>2015-08-30T10:49:09.506Z</time>
      </trkpt>
      <trkpt lat="47.98688" lon="6.90974">
        <ele>1095</ele>
        <time>2015-08-30T10:49:22.509Z</time>
      </trkpt>
      <trkpt lat="47.98711" lon="6.91029">
        <ele>1104</ele>
        <time>2015-08-30T10:50:01.509Z</time>
      </trkpt>
      <trkpt lat="47.98726" lon="6.91059">
        <ele>1105</ele>
        <time>2015-08-30T10:50:25.515Z</time>
      </trkpt>
      <trkpt lat="47.98734" lon="6.91079">
        <ele>1107</ele>
        <time>2015-08-30T10:50:32.508Z</time>
      </trkpt>
      <trkpt lat="47.98734" lon="6.91093">
        <ele>1107</ele>
        <time>2015-08-30T10:51:32.509Z</time>
      </trkpt>
      <trkpt lat="47.98739" lon="6.91107">
        <ele>1106</ele>
        <time>2015-08-30T10:52:32.51Z</time>
      </trkpt>
      <trkpt lat="47.98751" lon="6.91115">
        <ele>1100</ele>
        <time>2015-08-30T10:52:42.515Z</time>
      </trkpt>
      <trkpt lat="47.98765" lon="6.91103">
        <ele>1100</ele>
        <time>2015-08-30T10:52:55.511Z</time>
      </trkpt>
      <trkpt lat="47.98779" lon="6.91103">
        <ele>1098</ele>
        <time>2015-08-30T10:53:01.508Z</time>
      </trkpt>
      <trkpt lat="47.98801" lon="6.91108">
        <ele>1095</ele>
        <time>2015-08-30T10:53:17.514Z</time>
      </trkpt>
      <trkpt lat="47.98815" lon="6.9111">
        <ele>1093</ele>
        <time>2015-08-30T10:53:27.51Z</time>
      </trkpt>
      <trkpt lat="47.9883" lon="6.91108">
        <ele>1092</ele>
        <time>2015-08-30T10:53:37.516Z</time>
      </trkpt>
      <trkpt lat="47.98849" lon="6.91111">
        <ele>1081</ele>
        <time>2015-08-30T10:53:52.515Z</time>
      </trkpt>
      <trkpt lat="47.98868" lon="6.9111">
        <ele>1078</ele>
        <time>2015-08-30T10:54:07.51Z</time>
      </trkpt>
      <trkpt lat="47.98882" lon="6.91106">
        <ele>1076</ele>
        <time>2015-08-30T10:54:20.506Z</time>
      </trkpt>
      <trkpt lat="47.98896" lon="6.91115">
        <ele>1075</ele>
        <time>2015-08-30T10:54:30.508Z</time>
      </trkpt>
      <trkpt lat="47.98923" lon="6.91139">
        <ele>1066</ele>
        <time>2015-08-30T10:54:55.508Z</time>
      </trkpt>
      <trkpt lat="47.98936" lon="6.91148">
        <ele>1066</ele>
        <time>2015-08-30T10:55:05.51Z</time>
      </trkpt>
      <trkpt lat="47.98952" lon="6.91155">
        <ele>1064</ele>
        <time>2015-08-30T10:55:15.508Z</time>
      </trkpt>
      <trkpt lat="47.98966" lon="6.91157">
        <ele>1063</ele>
        <time>2015-08-30T10:55:28.509Z</time>
      </trkpt>
      <trkpt lat="47.98968" lon="6.91148">
        <ele>1062</ele>
        <time>2015-08-30T10:56:28.51Z</time>
      </trkpt>
      <trkpt lat="47.98957" lon="6.91132">
        <ele>1062</ele>
        <time>2015-08-30T10:56:41.508Z</time>
      </trkpt>
      <trkpt lat="47.98957" lon="6.91111">
        <ele>1061</ele>
        <time>2015-08-30T10:56:50.506Z</time>
      </trkpt>
      <trkpt lat="47.98946" lon="6.91094">
        <ele>1062</ele>
        <time>2015-08-30T10:56:57.505Z</time>
      </trkpt>
      <trkpt lat="47.98919" lon="6.9104">
        <ele>1052</ele>
        <time>2015-08-30T10:57:28.51Z</time>
      </trkpt>
      <trkpt lat="47.98884" lon="6.90979">
        <ele>1052</ele>
        <time>2015-08-30T10:58:02.51Z</time>
      </trkpt>
      <trkpt lat="47.98851" lon="6.90936">
        <ele>1051</ele>
        <time>2015-08-30T10:58:30.508Z</time>
      </trkpt>
      <trkpt lat="47.98807" lon="6.90892">
        <ele>1049</ele>
        <time>2015-08-30T10:59:01.509Z</time>
      </trkpt>
      <trkpt lat="47.98798" lon="6.90877">
        <ele>1047</ele>
        <time>2015-08-30T10:59:11.506Z</time>
      </trkpt>
      <trkpt lat="47.98786" lon="6.90866">
        <ele>1047</ele>
        <time>2015-08-30T10:59:20.506Z</time>
      </trkpt>
      <trkpt lat="47.98747" lon="6.90835">
        <ele>1045</ele>
        <time>2015-08-30T10:59:52.506Z</time>
      </trkpt>
      <trkpt lat="47.98729" lon="6.90817">
        <ele>1039</ele>
        <time>2015-08-30T11:00:14.506Z</time>
      </trkpt>
      <trkpt lat="47.987" lon="6.90763">
        <ele>1035</ele>
        <time>2015-08-30T11:00:44.509Z</time>
      </trkpt>
      <trkpt lat="47.98711" lon="6.90747">
        <ele>1018</ele>
        <time>2015-08-30T11:00:55.506Z</time>
      </trkpt>
      <trkpt lat="47.98728" lon="6.90749">
        <ele>1015</ele>
        <time>2015-08-30T11:01:12.506Z</time>
      </trkpt>
      <trkpt lat="47.98742" lon="6.90747">
        <ele>1013</ele>
        <time>2015-08-30T11:01:23.504Z</time>
      </trkpt>
      <trkpt lat="47.9875" lon="6.90765">
        <ele>1015</ele>
        <time>2015-08-30T11:01:55.506Z</time>
      </trkpt>
      <trkpt lat="47.98764" lon="6.90759">
        <ele>1014</ele>
        <time>2015-08-30T11:02:05.505Z</time>
      </trkpt>
      <trkpt lat="47.98795" lon="6.90776">
        <ele>1013</ele>
        <time>2015-08-30T11:02:23.504Z</time>
      </trkpt>
      <trkpt lat="47.98811" lon="6.9078">
        <ele>1011</ele>
        <time>2015-08-30T11:02:36.505Z</time>
      </trkpt>
      <trkpt lat="47.98824" lon="6.90788">
        <ele>1012</ele>
        <time>2015-08-30T11:02:43.505Z</time>
      </trkpt>
      <trkpt lat="47.98838" lon="6.90787">
        <ele>998</ele>
        <time>2015-08-30T11:02:53.511Z</time>
      </trkpt>
      <trkpt lat="47.98909" lon="6.90803">
        <ele>995</ele>
        <time>2015-08-30T11:04:23.198Z</time>
      </trkpt>
      <trkpt lat="47.98934" lon="6.90824">
        <ele>988</ele>
        <time>2015-08-30T11:04:29.196Z</time>
      </trkpt>
      <trkpt lat="47.98971" lon="6.90852">
        <ele>1000</ele>
        <time>2015-08-30T11:04:51.195Z</time>
      </trkpt>
      <trkpt lat="47.99016" lon="6.90871">
        <ele>988</ele>
        <time>2015-08-30T11:05:20.194Z</time>
      </trkpt>
      <trkpt lat="47.99048" lon="6.9084">
        <ele>981</ele>
        <time>2015-08-30T11:06:20.196Z</time>
      </trkpt>
      <trkpt lat="47.99016" lon="6.90815">
        <ele>970</ele>
        <time>2015-08-30T11:07:21.188Z</time>
      </trkpt>
      <trkpt lat="47.99044" lon="6.90763">
        <ele>958</ele>
        <time>2015-08-30T11:08:18.189Z</time>
      </trkpt>
      <trkpt lat="47.99094" lon="6.90761">
        <ele>947</ele>
        <time>2015-08-30T11:09:11.189Z</time>
      </trkpt>
      <trkpt lat="47.99131" lon="6.90725">
        <ele>932</ele>
        <time>2015-08-30T11:10:11.189Z</time>
      </trkpt>
      <trkpt lat="47.99175" lon="6.90707">
        <ele>923</ele>
        <time>2015-08-30T11:10:51.19Z</time>
      </trkpt>
      <trkpt lat="47.99212" lon="6.90669">
        <ele>918</ele>
        <time>2015-08-30T11:11:44.19Z</time>
      </trkpt>
      <trkpt lat="47.9924" lon="6.9065">
        <ele>907</ele>
        <time>2015-08-30T11:12:44.193Z</time>
      </trkpt>
      <trkpt lat="47.99287" lon="6.90627">
        <ele>900</ele>
        <time>2015-08-30T11:13:43.19Z</time>
      </trkpt>
      <trkpt lat="47.99331" lon="6.90604">
        <ele>897</ele>
        <time>2015-08-30T11:14:29.191Z</time>
      </trkpt>
      <trkpt lat="47.99334" lon="6.90585">
        <ele>895</ele>
        <time>2015-08-30T11:14:42.191Z</time>
      </trkpt>
      <trkpt lat="47.99328" lon="6.90566">
        <ele>896</ele>
        <time>2015-08-30T11:14:53.19Z</time>
      </trkpt>
      <trkpt lat="47.99326" lon="6.90545">
        <ele>897</ele>
        <time>2015-08-30T11:15:04.191Z</time>
      </trkpt>
      <trkpt lat="47.9932" lon="6.90527">
        <ele>898</ele>
        <time>2015-08-30T11:15:12.19Z</time>
      </trkpt>
      <trkpt lat="47.99295" lon="6.9047">
        <ele>907</ele>
        <time>2015-08-30T11:16:09.198Z</time>
      </trkpt>
      <trkpt lat="47.9927" lon="6.90446">
        <ele>908</ele>
        <time>2015-08-30T11:16:26.19Z</time>
      </trkpt>
      <trkpt lat="47.99236" lon="6.9041">
        <ele>911</ele>
        <time>2015-08-30T11:17:02.19Z</time>
      </trkpt>
      <trkpt lat="47.99204" lon="6.90366">
        <ele>913</ele>
        <time>2015-08-30T11:17:33.193Z</time>
      </trkpt>
      <trkpt lat="47.99161" lon="6.90344">
        <ele>903</ele>
        <time>2015-08-30T11:18:11.191Z</time>
      </trkpt>
      <trkpt lat="47.99126" lon="6.90303">
        <ele>912</ele>
        <time>2015-08-30T11:19:11.199Z</time>
      </trkpt>
      <trkpt lat="47.99111" lon="6.90286">
        <ele>912</ele>
        <time>2015-08-30T11:19:20.193Z</time>
      </trkpt>
      <trkpt lat="47.99094" lon="6.90275">
        <ele>912</ele>
        <time>2015-08-30T11:19:32.195Z</time>
      </trkpt>
      <trkpt lat="47.99048" lon="6.90259">
        <ele>900</ele>
        <time>2015-08-30T11:20:07.194Z</time>
      </trkpt>
      <trkpt lat="47.99014" lon="6.90269">
        <ele>897</ele>
        <time>2015-08-30T11:21:07.203Z</time>
      </trkpt>
      <trkpt lat="47.99015" lon="6.90282">
        <ele>897</ele>
        <time>2015-08-30T11:22:08.205Z</time>
      </trkpt>
      <trkpt lat="47.99011" lon="6.90293">
        <ele>895</ele>
        <time>2015-08-30T11:23:09.196Z</time>
      </trkpt>
      <trkpt lat="47.99014" lon="6.90262">
        <ele>898</ele>
        <time>2015-08-30T11:24:09.21Z</time>
      </trkpt>
      <trkpt lat="47.99014" lon="6.90263">
        <ele>898</ele>
        <time>2015-08-30T11:25:10.201Z</time>
      </trkpt>
      <trkpt lat="47.99013" lon="6.90263">
        <ele>898</ele>
        <time>2015-08-30T11:26:11.2Z</time>
      </trkpt>
      <trkpt lat="47.99013" lon="6.90263">
        <ele>898</ele>
        <time>2015-08-30T11:27:11.2Z</time>
      </trkpt>
      <trkpt lat="47.99011" lon="6.90268">
        <ele>897</ele>
        <time>2015-08-30T11:28:11.2Z</time>
      </trkpt>
      <trkpt lat="47.99011" lon="6.90269">
        <ele>897</ele>
        <time>2015-08-30T11:29:11.2Z</time>
      </trkpt>
      <trkpt lat="47.99011" lon="6.90269">
        <ele>897</ele>
        <time>2015-08-30T11:30:11.2Z</time>
      </trkpt>
      <trkpt lat="47.99011" lon="6.9027">
        <ele>897</ele>
        <time>2015-08-30T11:31:11.203Z</time>
      </trkpt>
      <trkpt lat="47.99011" lon="6.90271">
        <ele>897</ele>
        <time>2015-08-30T11:32:11.204Z</time>
      </trkpt>
      <trkpt lat="47.99011" lon="6.90271">
        <ele>897</ele>
        <time>2015-08-30T11:33:12.204Z</time>
      </trkpt>
      <trkpt lat="47.99011" lon="6.90272">
        <ele>897</ele>
        <time>2015-08-30T11:34:13.201Z</time>
      </trkpt>
      <trkpt lat="47.99011" lon="6.90272">
        <ele>897</ele>
        <time>2015-08-30T11:35:13.203Z</time>
      </trkpt>
      <trkpt lat="47.9901" lon="6.90272">
        <ele>897</ele>
        <time>2015-08-30T11:36:13.205Z</time>
      </trkpt>
      <trkpt lat="47.99009" lon="6.90273">
        <ele>897</ele>
        <time>2015-08-30T11:37:14.205Z</time>
      </trkpt>
      <trkpt lat="47.99009" lon="6.90273">
        <ele>897</ele>
        <time>2015-08-30T11:38:14.205Z</time>
      </trkpt>
      <trkpt lat="47.99009" lon="6.90275">
        <ele>897</ele>
        <time>2015-08-30T11:39:14.206Z</time>
      </trkpt>
      <trkpt lat="47.99006" lon="6.90283">
        <ele>896</ele>
        <time>2015-08-30T11:40:14.206Z</time>
      </trkpt>
      <trkpt lat="47.99007" lon="6.90293">
        <ele>895</ele>
        <time>2015-08-30T11:41:15.205Z</time>
      </trkpt>
      <trkpt lat="47.99007" lon="6.903">
        <ele>894</ele>
        <time>2015-08-30T11:42:15.205Z</time>
      </trkpt>
      <trkpt lat="47.99007" lon="6.903">
        <ele>894</ele>
        <time>2015-08-30T11:43:15.205Z</time>
      </trkpt>
      <trkpt lat="47.99007" lon="6.903">
        <ele>894</ele>
        <time>2015-08-30T11:44:16.201Z</time>
      </trkpt>
      <trkpt lat="47.99007" lon="6.903">
        <ele>894</ele>
        <time>2015-08-30T11:45:16.206Z</time>
      </trkpt>
      <trkpt lat="47.99007" lon="6.90301">
        <ele>894</ele>
        <time>2015-08-30T11:46:16.208Z</time>
      </trkpt>
      <trkpt lat="47.99007" lon="6.90302">
        <ele>894</ele>
        <time>2015-08-30T11:47:16.208Z</time>
      </trkpt>
      <trkpt lat="47.99007" lon="6.90302">
        <ele>894</ele>
        <time>2015-08-30T11:48:16.215Z</time>
      </trkpt>
      <trkpt lat="47.99007" lon="6.90302">
        <ele>894</ele>
        <time>2015-08-30T11:49:17.208Z</time>
      </trkpt>
      <trkpt lat="47.99007" lon="6.90303">
        <ele>894</ele>
        <time>2015-08-30T11:50:17.22Z</time>
      </trkpt>
      <trkpt lat="47.99007" lon="6.90303">
        <ele>894</ele>
        <time>2015-08-30T11:51:18.209Z</time>
      </trkpt>
      <trkpt lat="47.99007" lon="6.90304">
        <ele>894</ele>
        <time>2015-08-30T11:52:19.21Z</time>
      </trkpt>
      <trkpt lat="47.98999" lon="6.90301">
        <ele>892</ele>
        <time>2015-08-30T11:53:19.21Z</time>
      </trkpt>
      <trkpt lat="47.99" lon="6.90301">
        <ele>892</ele>
        <time>2015-08-30T11:54:19.21Z</time>
      </trkpt>
      <trkpt lat="47.99" lon="6.90302">
        <ele>892</ele>
        <time>2015-08-30T11:55:20.209Z</time>
      </trkpt>
      <trkpt lat="47.99" lon="6.90303">
        <ele>891</ele>
        <time>2015-08-30T11:56:21.21Z</time>
      </trkpt>
      <trkpt lat="47.99" lon="6.90303">
        <ele>894</ele>
        <time>2015-08-30T11:57:21.21Z</time>
      </trkpt>
      <trkpt lat="47.99001" lon="6.90304">
        <ele>894</ele>
        <time>2015-08-30T11:58:22.21Z</time>
      </trkpt>
      <trkpt lat="47.99001" lon="6.90304">
        <ele>893</ele>
        <time>2015-08-30T11:59:23.208Z</time>
      </trkpt>
      <trkpt lat="47.99002" lon="6.90307">
        <ele>893</ele>
        <time>2015-08-30T12:00:23.208Z</time>
      </trkpt>
      <trkpt lat="47.99002" lon="6.90308">
        <ele>893</ele>
        <time>2015-08-30T12:01:23.208Z</time>
      </trkpt>
      <trkpt lat="47.99002" lon="6.90309">
        <ele>893</ele>
        <time>2015-08-30T12:02:24.206Z</time>
      </trkpt>
      <trkpt lat="47.99002" lon="6.90309">
        <ele>893</ele>
        <time>2015-08-30T12:03:24.208Z</time>
      </trkpt>
      <trkpt lat="47.99018" lon="6.90316">
        <ele>893</ele>
        <time>2015-08-30T12:03:29.205Z</time>
      </trkpt>
      <trkpt lat="47.99013" lon="6.90291">
        <ele>896</ele>
        <time>2015-08-30T12:04:29.206Z</time>
      </trkpt>
      <trkpt lat="47.99013" lon="6.90292">
        <ele>895</ele>
        <time>2015-08-30T12:05:30.206Z</time>
      </trkpt>
      <trkpt lat="47.99015" lon="6.90275">
        <ele>897</ele>
        <time>2015-08-30T12:06:30.209Z</time>
      </trkpt>
      <trkpt lat="47.99015" lon="6.90261">
        <ele>898</ele>
        <time>2015-08-30T12:07:30.213Z</time>
      </trkpt>
      <trkpt lat="47.99015" lon="6.90262">
        <ele>898</ele>
        <time>2015-08-30T12:08:31.211Z</time>
      </trkpt>
      <trkpt lat="47.9903" lon="6.90242">
        <ele>914</ele>
        <time>2015-08-30T12:09:32.201Z</time>
      </trkpt>
      <trkpt lat="47.99086" lon="6.90267">
        <ele>912</ele>
        <time>2015-08-30T12:10:32.198Z</time>
      </trkpt>
      <trkpt lat="47.99103" lon="6.90279">
        <ele>912</ele>
        <time>2015-08-30T12:10:48.196Z</time>
      </trkpt>
      <trkpt lat="47.99118" lon="6.90277">
        <ele>915</ele>
        <time>2015-08-30T12:10:55.196Z</time>
      </trkpt>
      <trkpt lat="47.99145" lon="6.90297">
        <ele>915</ele>
        <time>2015-08-30T12:11:35.196Z</time>
      </trkpt>
      <trkpt lat="47.99153" lon="6.90319">
        <ele>911</ele>
        <time>2015-08-30T12:11:44.196Z</time>
      </trkpt>
      <trkpt lat="47.9917" lon="6.90334">
        <ele>908</ele>
        <time>2015-08-30T12:12:02.196Z</time>
      </trkpt>
      <trkpt lat="47.99197" lon="6.90356">
        <ele>913</ele>
        <time>2015-08-30T12:12:25.193Z</time>
      </trkpt>
      <trkpt lat="47.99231" lon="6.90389">
        <ele>914</ele>
        <time>2015-08-30T12:12:58.195Z</time>
      </trkpt>
      <trkpt lat="47.99251" lon="6.90412">
        <ele>914</ele>
        <time>2015-08-30T12:13:17.193Z</time>
      </trkpt>
      <trkpt lat="47.99296" lon="6.9047">
        <ele>907</ele>
        <time>2015-08-30T12:14:04.196Z</time>
      </trkpt>
      <trkpt lat="47.99309" lon="6.90481">
        <ele>907</ele>
        <time>2015-08-30T12:14:21.196Z</time>
      </trkpt>
      <trkpt lat="47.99305" lon="6.90461">
        <ele>909</ele>
        <time>2015-08-30T12:14:39.196Z</time>
      </trkpt>
      <trkpt lat="47.99274" lon="6.9043">
        <ele>910</ele>
        <time>2015-08-30T12:15:30.196Z</time>
      </trkpt>
      <trkpt lat="47.99262" lon="6.90422">
        <ele>910</ele>
        <time>2015-08-30T12:15:41.198Z</time>
      </trkpt>
      <trkpt lat="47.99251" lon="6.90392">
        <ele>925</ele>
        <time>2015-08-30T12:15:57.199Z</time>
      </trkpt>
      <trkpt lat="47.9924" lon="6.90379">
        <ele>916</ele>
        <time>2015-08-30T12:16:09.195Z</time>
      </trkpt>
      <trkpt lat="47.9921" lon="6.90328">
        <ele>935</ele>
        <time>2015-08-30T12:16:47.195Z</time>
      </trkpt>
      <trkpt lat="47.99204" lon="6.90304">
        <ele>938</ele>
        <time>2015-08-30T12:17:05.198Z</time>
      </trkpt>
      <trkpt lat="47.99189" lon="6.90298">
        <ele>936</ele>
        <time>2015-08-30T12:17:15.196Z</time>
      </trkpt>
      <trkpt lat="47.99156" lon="6.90251">
        <ele>932</ele>
        <time>2015-08-30T12:18:12.194Z</time>
      </trkpt>
      <trkpt lat="47.99136" lon="6.90218">
        <ele>947</ele>
        <time>2015-08-30T12:18:52.195Z</time>
      </trkpt>
      <trkpt lat="47.99112" lon="6.90177">
        <ele>952</ele>
        <time>2015-08-30T12:19:34.194Z</time>
      </trkpt>
      <trkpt lat="47.99083" lon="6.90124">
        <ele>986</ele>
        <time>2015-08-30T12:20:26.191Z</time>
      </trkpt>
      <trkpt lat="47.9907" lon="6.90108">
        <ele>971</ele>
        <time>2015-08-30T12:20:45.194Z</time>
      </trkpt>
      <trkpt lat="47.99034" lon="6.90073">
        <ele>993</ele>
        <time>2015-08-30T12:21:32.193Z</time>
      </trkpt>
      <trkpt lat="47.99027" lon="6.90048">
        <ele>997</ele>
        <time>2015-08-30T12:21:52.193Z</time>
      </trkpt>
      <trkpt lat="47.98997" lon="6.89999">
        <ele>1006</ele>
        <time>2015-08-30T12:22:46.189Z</time>
      </trkpt>
      <trkpt lat="47.98988" lon="6.89984">
        <ele>1013</ele>
        <time>2015-08-30T12:23:08.19Z</time>
      </trkpt>
      <trkpt lat="47.98969" lon="6.89948">
        <ele>1022</ele>
        <time>2015-08-30T12:23:56.195Z</time>
      </trkpt>
      <trkpt lat="47.98938" lon="6.89904">
        <ele>1041</ele>
        <time>2015-08-30T12:24:57.203Z</time>
      </trkpt>
      <trkpt lat="47.98923" lon="6.89902">
        <ele>1037</ele>
        <time>2015-08-30T12:25:10.19Z</time>
      </trkpt>
      <trkpt lat="47.98898" lon="6.89871">
        <ele>1046</ele>
        <time>2015-08-30T12:26:10.195Z</time>
      </trkpt>
      <trkpt lat="47.98878" lon="6.8988">
        <ele>1047</ele>
        <time>2015-08-30T12:26:20.186Z</time>
      </trkpt>
      <trkpt lat="47.98862" lon="6.89856">
        <ele>1052</ele>
        <time>2015-08-30T12:27:02.185Z</time>
      </trkpt>
      <trkpt lat="47.98874" lon="6.89791">
        <ele>1064</ele>
        <time>2015-08-30T12:27:52.183Z</time>
      </trkpt>
      <trkpt lat="47.98876" lon="6.8976">
        <ele>1066</ele>
        <time>2015-08-30T12:28:23.184Z</time>
      </trkpt>
      <trkpt lat="47.98871" lon="6.89724">
        <ele>1069</ele>
        <time>2015-08-30T12:29:23.189Z</time>
      </trkpt>
      <trkpt lat="47.98872" lon="6.8972">
        <ele>1069</ele>
        <time>2015-08-30T12:30:23.19Z</time>
      </trkpt>
      <trkpt lat="47.98868" lon="6.89719">
        <ele>1069</ele>
        <time>2015-08-30T12:31:24.185Z</time>
      </trkpt>
      <trkpt lat="47.98868" lon="6.89719">
        <ele>1069</ele>
        <time>2015-08-30T12:32:24.199Z</time>
      </trkpt>
      <trkpt lat="47.98868" lon="6.8972">
        <ele>1069</ele>
        <time>2015-08-30T12:33:24.2Z</time>
      </trkpt>
      <trkpt lat="47.98867" lon="6.8972">
        <ele>1069</ele>
        <time>2015-08-30T12:34:25.195Z</time>
      </trkpt>
      <trkpt lat="47.98861" lon="6.89731">
        <ele>1068</ele>
        <time>2015-08-30T12:35:26.193Z</time>
      </trkpt>
      <trkpt lat="47.98848" lon="6.89718">
        <ele>1068</ele>
        <time>2015-08-30T12:36:01.19Z</time>
      </trkpt>
      <trkpt lat="47.98811" lon="6.89721">
        <ele>1068</ele>
        <time>2015-08-30T12:36:40.191Z</time>
      </trkpt>
      <trkpt lat="47.98792" lon="6.8973">
        <ele>1070</ele>
        <time>2015-08-30T12:37:00.19Z</time>
      </trkpt>
      <trkpt lat="47.98798" lon="6.89751">
        <ele>1073</ele>
        <time>2015-08-30T12:37:05.194Z</time>
      </trkpt>
      <trkpt lat="47.98784" lon="6.89753">
        <ele>1075</ele>
        <time>2015-08-30T12:37:16.191Z</time>
      </trkpt>
      <trkpt lat="47.98774" lon="6.89773">
        <ele>1077</ele>
        <time>2015-08-30T12:37:40.193Z</time>
      </trkpt>
      <trkpt lat="47.98759" lon="6.89794">
        <ele>1079</ele>
        <time>2015-08-30T12:37:56.193Z</time>
      </trkpt>
      <trkpt lat="47.98755" lon="6.89817">
        <ele>1083</ele>
        <time>2015-08-30T12:38:09.19Z</time>
      </trkpt>
      <trkpt lat="47.98764" lon="6.89835">
        <ele>1084</ele>
        <time>2015-08-30T12:38:18.191Z</time>
      </trkpt>
      <trkpt lat="47.98741" lon="6.89861">
        <ele>1095</ele>
        <time>2015-08-30T12:38:49.19Z</time>
      </trkpt>
      <trkpt lat="47.98699" lon="6.89912">
        <ele>1101</ele>
        <time>2015-08-30T12:39:42.191Z</time>
      </trkpt>
      <trkpt lat="47.98687" lon="6.89936">
        <ele>1100</ele>
        <time>2015-08-30T12:39:57.195Z</time>
      </trkpt>
      <trkpt lat="47.98688" lon="6.89957">
        <ele>1098</ele>
        <time>2015-08-30T12:40:07.188Z</time>
      </trkpt>
      <trkpt lat="47.98661" lon="6.89964">
        <ele>1113</ele>
        <time>2015-08-30T12:40:29.195Z</time>
      </trkpt>
      <trkpt lat="47.98643" lon="6.8998">
        <ele>1113</ele>
        <time>2015-08-30T12:40:45.191Z</time>
      </trkpt>
      <trkpt lat="47.98627" lon="6.89987">
        <ele>1115</ele>
        <time>2015-08-30T12:40:58.186Z</time>
      </trkpt>
      <trkpt lat="47.98617" lon="6.90002">
        <ele>1113</ele>
        <time>2015-08-30T12:41:10.185Z</time>
      </trkpt>
      <trkpt lat="47.98608" lon="6.90018">
        <ele>1113</ele>
        <time>2015-08-30T12:41:21.184Z</time>
      </trkpt>
      <trkpt lat="47.98602" lon="6.90055">
        <ele>1112</ele>
        <time>2015-08-30T12:42:21.189Z</time>
      </trkpt>
      <trkpt lat="47.98593" lon="6.9004">
        <ele>1113</ele>
        <time>2015-08-30T12:43:21.188Z</time>
      </trkpt>
      <trkpt lat="47.98549" lon="6.90014">
        <ele>1116</ele>
        <time>2015-08-30T12:43:58.188Z</time>
      </trkpt>
      <trkpt lat="47.98521" lon="6.89999">
        <ele>1113</ele>
        <time>2015-08-30T12:44:21.19Z</time>
      </trkpt>
      <trkpt lat="47.98476" lon="6.89988">
        <ele>1103</ele>
        <time>2015-08-30T12:44:56.194Z</time>
      </trkpt>
      <trkpt lat="47.98432" lon="6.8997">
        <ele>1096</ele>
        <time>2015-08-30T12:45:40.193Z</time>
      </trkpt>
      <trkpt lat="47.98419" lon="6.89954">
        <ele>1096</ele>
        <time>2015-08-30T12:46:40.193Z</time>
      </trkpt>
      <trkpt lat="47.98426" lon="6.89969">
        <ele>1096</ele>
        <time>2015-08-30T12:47:41.188Z</time>
      </trkpt>
      <trkpt lat="47.98426" lon="6.89993">
        <ele>1092</ele>
        <time>2015-08-30T12:47:50.189Z</time>
      </trkpt>
      <trkpt lat="47.98423" lon="6.90022">
        <ele>1093</ele>
        <time>2015-08-30T12:48:05.189Z</time>
      </trkpt>
      <trkpt lat="47.98425" lon="6.90056">
        <ele>1094</ele>
        <time>2015-08-30T12:48:23.186Z</time>
      </trkpt>
      <trkpt lat="47.98424" lon="6.90079">
        <ele>1091</ele>
        <time>2015-08-30T12:48:33.189Z</time>
      </trkpt>
      <trkpt lat="47.9842" lon="6.9012">
        <ele>1095</ele>
        <time>2015-08-30T12:48:55.185Z</time>
      </trkpt>
      <trkpt lat="47.9841" lon="6.90151">
        <ele>1083</ele>
        <time>2015-08-30T12:49:10.189Z</time>
      </trkpt>
      <trkpt lat="47.98406" lon="6.90172">
        <ele>1084</ele>
        <time>2015-08-30T12:49:22.185Z</time>
      </trkpt>
      <trkpt lat="47.98398" lon="6.90245">
        <ele>1082</ele>
        <time>2015-08-30T12:50:02.185Z</time>
      </trkpt>
      <trkpt lat="47.98401" lon="6.90268">
        <ele>1080</ele>
        <time>2015-08-30T12:50:11.185Z</time>
      </trkpt>
      <trkpt lat="47.98404" lon="6.90323">
        <ele>1080</ele>
        <time>2015-08-30T12:50:32.185Z</time>
      </trkpt>
      <trkpt lat="47.98408" lon="6.90357">
        <ele>1079</ele>
        <time>2015-08-30T12:50:48.185Z</time>
      </trkpt>
      <trkpt lat="47.98401" lon="6.90368">
        <ele>1077</ele>
        <time>2015-08-30T12:51:48.186Z</time>
      </trkpt>
      <trkpt lat="47.98389" lon="6.90349">
        <ele>1077</ele>
        <time>2015-08-30T12:52:02.188Z</time>
      </trkpt>
      <trkpt lat="47.98346" lon="6.90324">
        <ele>1070</ele>
        <time>2015-08-30T12:52:36.191Z</time>
      </trkpt>
      <trkpt lat="47.98333" lon="6.90318">
        <ele>1061</ele>
        <time>2015-08-30T12:52:45.193Z</time>
      </trkpt>
      <trkpt lat="47.98297" lon="6.90277">
        <ele>1056</ele>
        <time>2015-08-30T12:53:38.198Z</time>
      </trkpt>
      <trkpt lat="47.98261" lon="6.90236">
        <ele>1049</ele>
        <time>2015-08-30T12:54:20.194Z</time>
      </trkpt>
      <trkpt lat="47.98217" lon="6.90251">
        <ele>1040</ele>
        <time>2015-08-30T12:55:14.19Z</time>
      </trkpt>
      <trkpt lat="47.98203" lon="6.90252">
        <ele>1038</ele>
        <time>2015-08-30T12:55:32.193Z</time>
      </trkpt>
      <trkpt lat="47.98168" lon="6.90268">
        <ele>1036</ele>
        <time>2015-08-30T12:56:00.191Z</time>
      </trkpt>
      <trkpt lat="47.98139" lon="6.90277">
        <ele>1025</ele>
        <time>2015-08-30T12:56:22.19Z</time>
      </trkpt>
      <trkpt lat="47.9809" lon="6.90301">
        <ele>1020</ele>
        <time>2015-08-30T12:57:04.193Z</time>
      </trkpt>
      <trkpt lat="47.98052" lon="6.90339">
        <ele>1007</ele>
        <time>2015-08-30T12:57:40.191Z</time>
      </trkpt>
      <trkpt lat="47.98015" lon="6.90397">
        <ele>1001</ele>
        <time>2015-08-30T12:58:21.193Z</time>
      </trkpt>
      <trkpt lat="47.97998" lon="6.9046">
        <ele>983</ele>
        <time>2015-08-30T12:58:53.19Z</time>
      </trkpt>
      <trkpt lat="47.97987" lon="6.905">
        <ele>987</ele>
        <time>2015-08-30T12:59:16.194Z</time>
      </trkpt>
      <trkpt lat="47.9797" lon="6.90563">
        <ele>979</ele>
        <time>2015-08-30T12:59:51.196Z</time>
      </trkpt>
      <trkpt lat="47.97968" lon="6.90595">
        <ele>978</ele>
        <time>2015-08-30T13:00:03.199Z</time>
      </trkpt>
      <trkpt lat="47.97962" lon="6.90657">
        <ele>976</ele>
        <time>2015-08-30T13:00:36.196Z</time>
      </trkpt>
      <trkpt lat="47.97968" lon="6.90695">
        <ele>976</ele>
        <time>2015-08-30T13:01:36.21Z</time>
      </trkpt>
      <trkpt lat="47.97972" lon="6.90687">
        <ele>977</ele>
        <time>2015-08-30T13:02:37.201Z</time>
      </trkpt>
      <trkpt lat="47.97972" lon="6.90687">
        <ele>977</ele>
        <time>2015-08-30T13:03:38.2Z</time>
      </trkpt>
      <trkpt lat="47.97964" lon="6.90734">
        <ele>975</ele>
        <time>2015-08-30T13:04:38.201Z</time>
      </trkpt>
      <trkpt lat="47.97958" lon="6.90802">
        <ele>972</ele>
        <time>2015-08-30T13:05:06.203Z</time>
      </trkpt>
      <trkpt lat="47.97951" lon="6.90866">
        <ele>969</ele>
        <time>2015-08-30T13:05:44.2Z</time>
      </trkpt>
      <trkpt lat="47.97946" lon="6.90885">
        <ele>968</ele>
        <time>2015-08-30T13:05:53.204Z</time>
      </trkpt>
      <trkpt lat="47.97948" lon="6.90905">
        <ele>968</ele>
        <time>2015-08-30T13:06:02.2Z</time>
      </trkpt>
      <trkpt lat="47.97942" lon="6.90926">
        <ele>964</ele>
        <time>2015-08-30T13:06:12.2Z</time>
      </trkpt>
      <trkpt lat="47.97933" lon="6.90959">
        <ele>962</ele>
        <time>2015-08-30T13:07:12.205Z</time>
      </trkpt>
      <trkpt lat="47.97933" lon="6.9096">
        <ele>962</ele>
        <time>2015-08-30T13:08:12.209Z</time>
      </trkpt>
      <trkpt lat="47.97928" lon="6.90926">
        <ele>960</ele>
        <time>2015-08-30T13:09:13.205Z</time>
      </trkpt>
      <trkpt lat="47.97923" lon="6.90905">
        <ele>960</ele>
        <time>2015-08-30T13:09:21.205Z</time>
      </trkpt>
      <trkpt lat="47.97908" lon="6.90842">
        <ele>945</ele>
        <time>2015-08-30T13:10:00.206Z</time>
      </trkpt>
      <trkpt lat="47.97893" lon="6.90776">
        <ele>940</ele>
        <time>2015-08-30T13:10:39.206Z</time>
      </trkpt>
      <trkpt lat="47.97871" lon="6.90717">
        <ele>935</ele>
        <time>2015-08-30T13:11:10.205Z</time>
      </trkpt>
      <trkpt lat="47.97866" lon="6.90689">
        <ele>933</ele>
        <time>2015-08-30T13:11:24.208Z</time>
      </trkpt>
      <trkpt lat="47.97845" lon="6.90622">
        <ele>928</ele>
        <time>2015-08-30T13:11:58.208Z</time>
      </trkpt>
      <trkpt lat="47.97839" lon="6.90587">
        <ele>917</ele>
        <time>2015-08-30T13:12:59.205Z</time>
      </trkpt>
      <trkpt lat="47.97839" lon="6.90587">
        <ele>917</ele>
        <time>2015-08-30T13:13:59.209Z</time>
      </trkpt>
      <trkpt lat="47.97836" lon="6.9058">
        <ele>915</ele>
        <time>2015-08-30T13:14:59.21Z</time>
      </trkpt>
      <trkpt lat="47.97836" lon="6.9058">
        <ele>915</ele>
        <time>2015-08-30T13:15:59.21Z</time>
      </trkpt>
      <trkpt lat="47.97835" lon="6.9058">
        <ele>915</ele>
        <time>2015-08-30T13:16:59.213Z</time>
      </trkpt>
      <trkpt lat="47.9783" lon="6.90577">
        <ele>907</ele>
        <time>2015-08-30T13:18:00.209Z</time>
      </trkpt>
      <trkpt lat="47.97829" lon="6.9058">
        <ele>908</ele>
        <time>2015-08-30T13:19:00.211Z</time>
      </trkpt>
      <trkpt lat="47.97831" lon="6.90579">
        <ele>908</ele>
        <time>2015-08-30T13:20:01.209Z</time>
      </trkpt>
      <trkpt lat="47.97831" lon="6.90579">
        <ele>908</ele>
        <time>2015-08-30T13:21:01.211Z</time>
      </trkpt>
      <trkpt lat="47.97828" lon="6.90511">
        <ele>905</ele>
        <time>2015-08-30T13:21:55.215Z</time>
      </trkpt>
      <trkpt lat="47.97819" lon="6.90465">
        <ele>900</ele>
        <time>2015-08-30T13:22:19.215Z</time>
      </trkpt>
      <trkpt lat="47.97802" lon="6.90401">
        <ele>899</ele>
        <time>2015-08-30T13:23:08.218Z</time>
      </trkpt>
      <trkpt lat="47.97779" lon="6.90342">
        <ele>892</ele>
        <time>2015-08-30T13:23:47.22Z</time>
      </trkpt>
      <trkpt lat="47.97773" lon="6.90306">
        <ele>892</ele>
        <time>2015-08-30T13:24:06.22Z</time>
      </trkpt>
      <trkpt lat="47.9776" lon="6.9024">
        <ele>884</ele>
        <time>2015-08-30T13:24:53.22Z</time>
      </trkpt>
      <trkpt lat="47.9775" lon="6.90196">
        <ele>863</ele>
        <time>2015-08-30T13:25:19.219Z</time>
      </trkpt>
      <trkpt lat="47.97746" lon="6.90126">
        <ele>861</ele>
        <time>2015-08-30T13:25:50.22Z</time>
      </trkpt>
      <trkpt lat="47.97735" lon="6.90061">
        <ele>859</ele>
        <time>2015-08-30T13:26:25.218Z</time>
      </trkpt>
      <trkpt lat="47.97734" lon="6.90062">
        <ele>859</ele>
        <time>2015-08-30T13:27:25.225Z</time>
      </trkpt>
      <trkpt lat="47.97716" lon="6.90062">
        <ele>853</ele>
        <time>2015-08-30T13:28:26.22Z</time>
      </trkpt>
      <trkpt lat="47.97684" lon="6.90036">
        <ele>845</ele>
        <time>2015-08-30T13:29:27.215Z</time>
      </trkpt>
      <trkpt lat="47.97667" lon="6.89984">
        <ele>835</ele>
        <time>2015-08-30T13:30:27.23Z</time>
      </trkpt>
      <trkpt lat="47.97648" lon="6.89989">
        <ele>816</ele>
        <time>2015-08-30T13:31:28.226Z</time>
      </trkpt>
      <trkpt lat="47.97625" lon="6.9">
        <ele>809</ele>
        <time>2015-08-30T13:32:28.236Z</time>
      </trkpt>
      <trkpt lat="47.97594" lon="6.89996">
        <ele>798</ele>
        <time>2015-08-30T13:33:29.225Z</time>
      </trkpt>
      <trkpt lat="47.97594" lon="6.89996">
        <ele>798</ele>
        <time>2015-08-30T13:34:29.226Z</time>
      </trkpt>
      <trkpt lat="47.97594" lon="6.89996">
        <ele>798</ele>
        <time>2015-08-30T13:35:29.226Z</time>
      </trkpt>
      <trkpt lat="47.97593" lon="6.90022">
        <ele>804</ele>
        <time>2015-08-30T13:36:30.221Z</time>
      </trkpt>
      <trkpt lat="47.97548" lon="6.9002">
        <ele>781</ele>
        <time>2015-08-30T13:37:22.215Z</time>
      </trkpt>
      <trkpt lat="47.97527" lon="6.89983">
        <ele>774</ele>
        <time>2015-08-30T13:37:57.216Z</time>
      </trkpt>
      <trkpt lat="47.97519" lon="6.89958">
        <ele>773</ele>
        <time>2015-08-30T13:38:11.22Z</time>
      </trkpt>
      <trkpt lat="47.97504" lon="6.89895">
        <ele>765</ele>
        <time>2015-08-30T13:38:49.236Z</time>
      </trkpt>
      <trkpt lat="47.97502" lon="6.89871">
        <ele>763</ele>
        <time>2015-08-30T13:39:07.235Z</time>
      </trkpt>
      <trkpt lat="47.97501" lon="6.89842">
        <ele>754</ele>
        <time>2015-08-30T13:39:18.235Z</time>
      </trkpt>
      <trkpt lat="47.97483" lon="6.89778">
        <ele>744</ele>
        <time>2015-08-30T13:40:09.231Z</time>
      </trkpt>
      <trkpt lat="47.97438" lon="6.8978">
        <ele>744</ele>
        <time>2015-08-30T13:41:00.228Z</time>
      </trkpt>
      <trkpt lat="47.974" lon="6.89745">
        <ele>744</ele>
        <time>2015-08-30T13:41:41.225Z</time>
      </trkpt>
      <trkpt lat="47.97378" lon="6.89695">
        <ele>745</ele>
        <time>2015-08-30T13:42:17.223Z</time>
      </trkpt>
      <trkpt lat="47.97375" lon="6.89662">
        <ele>742</ele>
        <time>2015-08-30T13:42:33.215Z</time>
      </trkpt>
      <trkpt lat="47.97373" lon="6.8964">
        <ele>741</ele>
        <time>2015-08-30T13:42:48.215Z</time>
      </trkpt>
      <trkpt lat="47.97377" lon="6.89631">
        <ele>741</ele>
        <time>2015-08-30T13:43:48.22Z</time>
      </trkpt>
      <trkpt lat="47.97374" lon="6.89623">
        <ele>741</ele>
        <time>2015-08-30T13:44:48.234Z</time>
      </trkpt>
      <trkpt lat="47.97372" lon="6.89628">
        <ele>741</ele>
        <time>2015-08-30T13:45:49.221Z</time>
      </trkpt>
      <trkpt lat="47.97376" lon="6.8964">
        <ele>741</ele>
        <time>2015-08-30T13:46:49.231Z</time>
      </trkpt>
      <trkpt lat="47.97371" lon="6.89628">
        <ele>741</ele>
        <time>2015-08-30T13:47:50.226Z</time>
      </trkpt>
      <trkpt lat="47.97368" lon="6.89605">
        <ele>741</ele>
        <time>2015-08-30T13:47:57.231Z</time>
      </trkpt>
      <trkpt lat="47.97365" lon="6.89576">
        <ele>740</ele>
        <time>2015-08-30T13:48:13.225Z</time>
      </trkpt>
      <trkpt lat="47.97358" lon="6.8955">
        <ele>740</ele>
        <time>2015-08-30T13:49:13.231Z</time>
      </trkpt>
      <trkpt lat="47.97363" lon="6.89577">
        <ele>740</ele>
        <time>2015-08-30T13:50:14.223Z</time>
      </trkpt>
      <trkpt lat="47.97357" lon="6.89627">
        <ele>743</ele>
        <time>2015-08-30T13:50:50.219Z</time>
      </trkpt>
      <trkpt lat="47.97355" lon="6.89666">
        <ele>746</ele>
        <time>2015-08-30T13:51:15.216Z</time>
      </trkpt>
      <trkpt lat="47.97338" lon="6.89735">
        <ele>753</ele>
        <time>2015-08-30T13:51:58.216Z</time>
      </trkpt>
      <trkpt lat="47.97333" lon="6.89762">
        <ele>764</ele>
        <time>2015-08-30T13:52:12.219Z</time>
      </trkpt>
      <trkpt lat="47.97335" lon="6.89783">
        <ele>755</ele>
        <time>2015-08-30T13:52:23.214Z</time>
      </trkpt>
      <trkpt lat="47.97321" lon="6.89791">
        <ele>770</ele>
        <time>2015-08-30T13:52:34.22Z</time>
      </trkpt>
      <trkpt lat="47.97317" lon="6.89724">
        <ele>769</ele>
        <time>2015-08-30T13:53:35.213Z</time>
      </trkpt>
      <trkpt lat="47.97299" lon="6.89662">
        <ele>771</ele>
        <time>2015-08-30T13:54:27.209Z</time>
      </trkpt>
      <trkpt lat="47.9728" lon="6.89599">
        <ele>776</ele>
        <time>2015-08-30T13:55:03.215Z</time>
      </trkpt>
      <trkpt lat="47.97269" lon="6.89533">
        <ele>775</ele>
        <time>2015-08-30T13:55:44.208Z</time>
      </trkpt>
      <trkpt lat="47.97262" lon="6.89499">
        <ele>780</ele>
        <time>2015-08-30T13:56:03.204Z</time>
      </trkpt>
      <trkpt lat="47.97258" lon="6.89431">
        <ele>777</ele>
        <time>2015-08-30T13:56:41.206Z</time>
      </trkpt>
      <trkpt lat="47.97234" lon="6.89373">
        <ele>795</ele>
        <time>2015-08-30T13:57:24.208Z</time>
      </trkpt>
      <trkpt lat="47.97227" lon="6.89349">
        <ele>794</ele>
        <time>2015-08-30T13:58:06.198Z</time>
      </trkpt>
      <trkpt lat="47.97197" lon="6.89344">
        <ele>801</ele>
        <time>2015-08-30T13:59:06.2Z</time>
      </trkpt>
      <trkpt lat="47.97175" lon="6.89331">
        <ele>806</ele>
        <time>2015-08-30T14:00:06.205Z</time>
      </trkpt>
      <trkpt lat="47.9715" lon="6.89316">
        <ele>819</ele>
        <time>2015-08-30T14:01:07.204Z</time>
      </trkpt>
      <trkpt lat="47.97121" lon="6.89261">
        <ele>825</ele>
        <time>2015-08-30T14:01:59.209Z</time>
      </trkpt>
      <trkpt lat="47.97075" lon="6.89214">
        <ele>845</ele>
        <time>2015-08-30T14:02:46.206Z</time>
      </trkpt>
      <trkpt lat="47.97067" lon="6.89225">
        <ele>845</ele>
        <time>2015-08-30T14:03:47.204Z</time>
      </trkpt>
      <trkpt lat="47.97062" lon="6.89259">
        <ele>848</ele>
        <time>2015-08-30T14:04:10.188Z</time>
      </trkpt>
      <trkpt lat="47.97056" lon="6.89329">
        <ele>852</ele>
        <time>2015-08-30T14:04:49.209Z</time>
      </trkpt>
      <trkpt lat="47.9707" lon="6.89354">
        <ele>853</ele>
        <time>2015-08-30T14:05:08.195Z</time>
      </trkpt>
      <trkpt lat="47.97048" lon="6.89413">
        <ele>859</ele>
        <time>2015-08-30T14:05:54.199Z</time>
      </trkpt>
      <trkpt lat="47.97031" lon="6.89476">
        <ele>866</ele>
        <time>2015-08-30T14:06:27.195Z</time>
      </trkpt>
      <trkpt lat="47.97018" lon="6.89536">
        <ele>868</ele>
        <time>2015-08-30T14:07:12.193Z</time>
      </trkpt>
      <trkpt lat="47.96992" lon="6.89598">
        <ele>879</ele>
        <time>2015-08-30T14:08:04.196Z</time>
      </trkpt>
      <trkpt lat="47.96978" lon="6.89602">
        <ele>881</ele>
        <time>2015-08-30T14:08:16.194Z</time>
      </trkpt>
      <trkpt lat="47.96962" lon="6.8961">
        <ele>884</ele>
        <time>2015-08-30T14:08:29.191Z</time>
      </trkpt>
      <trkpt lat="47.96918" lon="6.89596">
        <ele>893</ele>
        <time>2015-08-30T14:09:25.191Z</time>
      </trkpt>
      <trkpt lat="47.96888" lon="6.89607">
        <ele>901</ele>
        <time>2015-08-30T14:09:44.19Z</time>
      </trkpt>
      <trkpt lat="47.96851" lon="6.89614">
        <ele>904</ele>
        <time>2015-08-30T14:10:44.195Z</time>
      </trkpt>
      <trkpt lat="47.96793" lon="6.89617">
        <ele>916</ele>
        <time>2015-08-30T14:11:20.195Z</time>
      </trkpt>
      <trkpt lat="47.96748" lon="6.89612">
        <ele>931</ele>
        <time>2015-08-30T14:12:02.194Z</time>
      </trkpt>
      <trkpt lat="47.96703" lon="6.89627">
        <ele>932</ele>
        <time>2015-08-30T14:12:40.185Z</time>
      </trkpt>
      <trkpt lat="47.96659" lon="6.89642">
        <ele>943</ele>
        <time>2015-08-30T14:13:36.191Z</time>
      </trkpt>
      <trkpt lat="47.96637" lon="6.89648">
        <ele>946</ele>
        <time>2015-08-30T14:13:48.193Z</time>
      </trkpt>
      <trkpt lat="47.96592" lon="6.8966">
        <ele>949</ele>
        <time>2015-08-30T14:14:30.185Z</time>
      </trkpt>
      <trkpt lat="47.96546" lon="6.89672">
        <ele>949</ele>
        <time>2015-08-30T14:15:16.184Z</time>
      </trkpt>
      <trkpt lat="47.96499" lon="6.89681">
        <ele>964</ele>
        <time>2015-08-30T14:15:58.18Z</time>
      </trkpt>
      <trkpt lat="47.96481" lon="6.8969">
        <ele>960</ele>
        <time>2015-08-30T14:16:12.185Z</time>
      </trkpt>
      <trkpt lat="47.96467" lon="6.89687">
        <ele>960</ele>
        <time>2015-08-30T14:16:26.183Z</time>
      </trkpt>
      <trkpt lat="47.96448" lon="6.89674">
        <ele>963</ele>
        <time>2015-08-30T14:16:42.183Z</time>
      </trkpt>
      <trkpt lat="47.96401" lon="6.89652">
        <ele>979</ele>
        <time>2015-08-30T14:17:31.195Z</time>
      </trkpt>
      <trkpt lat="47.9636" lon="6.89622">
        <ele>981</ele>
        <time>2015-08-30T14:18:21.184Z</time>
      </trkpt>
      <trkpt lat="47.96334" lon="6.89587">
        <ele>985</ele>
        <time>2015-08-30T14:18:51.185Z</time>
      </trkpt>
      <trkpt lat="47.96302" lon="6.8954">
        <ele>992</ele>
        <time>2015-08-30T14:19:37.178Z</time>
      </trkpt>
      <trkpt lat="47.96263" lon="6.89489">
        <ele>1006</ele>
        <time>2015-08-30T14:20:20.186Z</time>
      </trkpt>
      <trkpt lat="47.96231" lon="6.89441">
        <ele>1011</ele>
        <time>2015-08-30T14:21:03.22Z</time>
      </trkpt>
      <trkpt lat="47.9621" lon="6.89421">
        <ele>1011</ele>
        <time>2015-08-30T14:21:22.19Z</time>
      </trkpt>
      <trkpt lat="47.96159" lon="6.89386">
        <ele>1025</ele>
        <time>2015-08-30T14:22:03.195Z</time>
      </trkpt>
      <trkpt lat="47.9614" lon="6.89378">
        <ele>1027</ele>
        <time>2015-08-30T14:22:18.191Z</time>
      </trkpt>
      <trkpt lat="47.96091" lon="6.89366">
        <ele>1028</ele>
        <time>2015-08-30T14:23:08.181Z</time>
      </trkpt>
      <trkpt lat="47.96052" lon="6.89331">
        <ele>1042</ele>
        <time>2015-08-30T14:23:37.201Z</time>
      </trkpt>
      <trkpt lat="47.9601" lon="6.89302">
        <ele>1043</ele>
        <time>2015-08-30T14:24:21.178Z</time>
      </trkpt>
      <trkpt lat="47.95967" lon="6.89296">
        <ele>1046</ele>
        <time>2015-08-30T14:24:59.175Z</time>
      </trkpt>
      <trkpt lat="47.95925" lon="6.89269">
        <ele>1053</ele>
        <time>2015-08-30T14:25:54.183Z</time>
      </trkpt>
      <trkpt lat="47.95909" lon="6.89263">
        <ele>1059</ele>
        <time>2015-08-30T14:26:05.176Z</time>
      </trkpt>
      <trkpt lat="47.95881" lon="6.89261">
        <ele>1060</ele>
        <time>2015-08-30T14:26:23.174Z</time>
      </trkpt>
      <trkpt lat="47.95871" lon="6.89276">
        <ele>1060</ele>
        <time>2015-08-30T14:26:38.175Z</time>
      </trkpt>
      <trkpt lat="47.95855" lon="6.89345">
        <ele>1052</ele>
        <time>2015-08-30T14:27:15.176Z</time>
      </trkpt>
      <trkpt lat="47.95847" lon="6.89363">
        <ele>1050</ele>
        <time>2015-08-30T14:27:26.178Z</time>
      </trkpt>
      <trkpt lat="47.95835" lon="6.89373">
        <ele>1050</ele>
        <time>2015-08-30T14:27:37.174Z</time>
      </trkpt>
      <trkpt lat="47.95822" lon="6.89391">
        <ele>1058</ele>
        <time>2015-08-30T14:27:51.174Z</time>
      </trkpt>
      <trkpt lat="47.95781" lon="6.89412">
        <ele>1062</ele>
        <time>2015-08-30T14:28:22.176Z</time>
      </trkpt>
      <trkpt lat="47.95771" lon="6.89396">
        <ele>1062</ele>
        <time>2015-08-30T14:28:35.171Z</time>
      </trkpt>
      <trkpt lat="47.95784" lon="6.89404">
        <ele>1061</ele>
        <time>2015-08-30T14:29:35.18Z</time>
      </trkpt>
      <trkpt lat="47.95786" lon="6.89382">
        <ele>1062</ele>
        <time>2015-08-30T14:30:31.173Z</time>
      </trkpt>
      <trkpt lat="47.95783" lon="6.89345">
        <ele>1063</ele>
        <time>2015-08-30T14:30:45.17Z</time>
      </trkpt>
      <trkpt lat="47.9579" lon="6.89325">
        <ele>1067</ele>
        <time>2015-08-30T14:30:53.17Z</time>
      </trkpt>
      <trkpt lat="47.95787" lon="6.89305">
        <ele>1067</ele>
        <time>2015-08-30T14:31:07.171Z</time>
      </trkpt>
      <trkpt lat="47.95772" lon="6.89293">
        <ele>1068</ele>
        <time>2015-08-30T14:31:15.174Z</time>
      </trkpt>
      <trkpt lat="47.95774" lon="6.89314">
        <ele>1067</ele>
        <time>2015-08-30T14:31:23.171Z</time>
      </trkpt>
      <trkpt lat="47.9578" lon="6.89332">
        <ele>1067</ele>
        <time>2015-08-30T14:31:31.171Z</time>
      </trkpt>
      <trkpt lat="47.95784" lon="6.89357">
        <ele>1063</ele>
        <time>2015-08-30T14:31:45.184Z</time>
      </trkpt>
      <trkpt lat="47.95776" lon="6.89389">
        <ele>1062</ele>
        <time>2015-08-30T14:32:07.176Z</time>
      </trkpt>
      <trkpt lat="47.95774" lon="6.89402">
        <ele>1062</ele>
        <time>2015-08-30T14:33:08.179Z</time>
      </trkpt>
      <trkpt lat="47.95774" lon="6.89402">
        <ele>1062</ele>
        <time>2015-08-30T14:34:08.18Z</time>
      </trkpt>
      <trkpt lat="47.95774" lon="6.89402">
        <ele>1062</ele>
        <time>2015-08-30T14:35:09.175Z</time>
      </trkpt>
      <trkpt lat="47.95774" lon="6.89402">
        <ele>1062</ele>
        <time>2015-08-30T14:36:09.19Z</time>
      </trkpt>
      <trkpt lat="47.95769" lon="6.89411">
        <ele>1063</ele>
        <time>2015-08-30T14:37:10.189Z</time>
      </trkpt>
      <trkpt lat="47.95764" lon="6.89407">
        <ele>1063</ele>
        <time>2015-08-30T14:38:11.189Z</time>
      </trkpt>
      <trkpt lat="47.95761" lon="6.89399">
        <ele>1063</ele>
        <time>2015-08-30T14:39:12.181Z</time>
      </trkpt>
      <trkpt lat="47.95773" lon="6.89385">
        <ele>1063</ele>
        <time>2015-08-30T14:40:05.186Z</time>
      </trkpt>
      <trkpt lat="47.95793" lon="6.89349">
        <ele>1063</ele>
        <time>2015-08-30T14:40:27.178Z</time>
      </trkpt>
      <trkpt lat="47.95784" lon="6.89328">
        <ele>1067</ele>
        <time>2015-08-30T14:40:38.18Z</time>
      </trkpt>
      <trkpt lat="47.95777" lon="6.89307">
        <ele>1067</ele>
        <time>2015-08-30T14:40:53.185Z</time>
      </trkpt>
      <trkpt lat="47.95762" lon="6.89304">
        <ele>1068</ele>
        <time>2015-08-30T14:40:57.181Z</time>
      </trkpt>
      <trkpt lat="47.95762" lon="6.89311">
        <ele>1068</ele>
        <time>2015-08-30T14:41:57.183Z</time>
      </trkpt>
      <trkpt lat="47.95749" lon="6.89323">
        <ele>1067</ele>
        <time>2015-08-30T14:42:57.185Z</time>
      </trkpt>
      <trkpt lat="47.95736" lon="6.89355">
        <ele>1066</ele>
        <time>2015-08-30T14:43:30.188Z</time>
      </trkpt>
      <trkpt lat="47.95716" lon="6.89394">
        <ele>1065</ele>
        <time>2015-08-30T14:43:54.186Z</time>
      </trkpt>
      <trkpt lat="47.95702" lon="6.89409">
        <ele>1065</ele>
        <time>2015-08-30T14:44:20.185Z</time>
      </trkpt>
      <trkpt lat="47.95691" lon="6.8942">
        <ele>1064</ele>
        <time>2015-08-30T14:44:30.184Z</time>
      </trkpt>
      <trkpt lat="47.9566" lon="6.89451">
        <ele>1062</ele>
        <time>2015-08-30T14:44:57.183Z</time>
      </trkpt>
      <trkpt lat="47.95642" lon="6.8948">
        <ele>1061</ele>
        <time>2015-08-30T14:45:18.183Z</time>
      </trkpt>
      <trkpt lat="47.95629" lon="6.89501">
        <ele>1059</ele>
        <time>2015-08-30T14:45:31.188Z</time>
      </trkpt>
      <trkpt lat="47.95578" lon="6.89554">
        <ele>1056</ele>
        <time>2015-08-30T14:46:16.186Z</time>
      </trkpt>
      <trkpt lat="47.95574" lon="6.89573">
        <ele>1056</ele>
        <time>2015-08-30T14:46:26.186Z</time>
      </trkpt>
      <trkpt lat="47.95557" lon="6.89605">
        <ele>1057</ele>
        <time>2015-08-30T14:46:46.186Z</time>
      </trkpt>
      <trkpt lat="47.9554" lon="6.89619">
        <ele>1057</ele>
        <time>2015-08-30T14:47:01.185Z</time>
      </trkpt>
      <trkpt lat="47.95537" lon="6.89639">
        <ele>1057</ele>
        <time>2015-08-30T14:47:11.188Z</time>
      </trkpt>
      <trkpt lat="47.95526" lon="6.89627">
        <ele>1057</ele>
        <time>2015-08-30T14:47:52.183Z</time>
      </trkpt>
      <trkpt lat="47.95523" lon="6.89623">
        <ele>1057</ele>
        <time>2015-08-30T14:48:52.196Z</time>
      </trkpt>
      <trkpt lat="47.95487" lon="6.89671">
        <ele>1066</ele>
        <time>2015-08-30T14:49:51.189Z</time>
      </trkpt>
      <trkpt lat="47.95449" lon="6.89719">
        <ele>1073</ele>
        <time>2015-08-30T14:50:41.191Z</time>
      </trkpt>
      <trkpt lat="47.95408" lon="6.8975">
        <ele>1081</ele>
        <time>2015-08-30T14:51:36.191Z</time>
      </trkpt>
      <trkpt lat="47.95371" lon="6.8979">
        <ele>1082</ele>
        <time>2015-08-30T14:52:36.194Z</time>
      </trkpt>
      <trkpt lat="47.95328" lon="6.89776">
        <ele>1082</ele>
        <time>2015-08-30T14:53:37.194Z</time>
      </trkpt>
      <trkpt lat="47.95319" lon="6.89775">
        <ele>1082</ele>
        <time>2015-08-30T14:54:37.216Z</time>
      </trkpt>
      <trkpt lat="47.95304" lon="6.89777">
        <ele>1082</ele>
        <time>2015-08-30T14:55:37.216Z</time>
      </trkpt>
      <trkpt lat="47.95306" lon="6.89745">
        <ele>1084</ele>
        <time>2015-08-30T14:56:15.213Z</time>
      </trkpt>
      <trkpt lat="47.95277" lon="6.89749">
        <ele>1083</ele>
        <time>2015-08-30T14:56:54.209Z</time>
      </trkpt>
      <trkpt lat="47.95277" lon="6.89757">
        <ele>1082</ele>
        <time>2015-08-30T14:57:54.23Z</time>
      </trkpt>
      <trkpt lat="47.95277" lon="6.89758">
        <ele>1082</ele>
        <time>2015-08-30T14:58:54.23Z</time>
      </trkpt>
      <trkpt lat="47.95278" lon="6.89785">
        <ele>1081</ele>
        <time>2015-08-30T14:59:55.22Z</time>
      </trkpt>
      <trkpt lat="47.95239" lon="6.89754">
        <ele>1078</ele>
        <time>2015-08-30T15:00:54.21Z</time>
      </trkpt>
      <trkpt lat="47.95201" lon="6.89716">
        <ele>1077</ele>
        <time>2015-08-30T15:01:32.209Z</time>
      </trkpt>
      <trkpt lat="47.95163" lon="6.89692">
        <ele>1068</ele>
        <time>2015-08-30T15:02:11.203Z</time>
      </trkpt>
      <trkpt lat="47.9512" lon="6.89666">
        <ele>1065</ele>
        <time>2015-08-30T15:02:48.2Z</time>
      </trkpt>
      <trkpt lat="47.95091" lon="6.89657">
        <ele>1063</ele>
        <time>2015-08-30T15:03:13.204Z</time>
      </trkpt>
      <trkpt lat="47.95051" lon="6.89657">
        <ele>1056</ele>
        <time>2015-08-30T15:03:54.2Z</time>
      </trkpt>
      <trkpt lat="47.95028" lon="6.89649">
        <ele>1054</ele>
        <time>2015-08-30T15:04:10.205Z</time>
      </trkpt>
      <trkpt lat="47.95005" lon="6.89636">
        <ele>1053</ele>
        <time>2015-08-30T15:04:31.21Z</time>
      </trkpt>
      <trkpt lat="47.94985" lon="6.89623">
        <ele>1047</ele>
        <time>2015-08-30T15:04:49.214Z</time>
      </trkpt>
      <trkpt lat="47.94941" lon="6.89606">
        <ele>1044</ele>
        <time>2015-08-30T15:05:33.215Z</time>
      </trkpt>
      <trkpt lat="47.94913" lon="6.89591">
        <ele>1037</ele>
        <time>2015-08-30T15:05:54.225Z</time>
      </trkpt>
      <trkpt lat="47.94893" lon="6.8958">
        <ele>1031</ele>
        <time>2015-08-30T15:06:14.226Z</time>
      </trkpt>
      <trkpt lat="47.9488" lon="6.89569">
        <ele>1029</ele>
        <time>2015-08-30T15:07:14.241Z</time>
      </trkpt>
      <trkpt lat="47.9488" lon="6.89569">
        <ele>1029</ele>
        <time>2015-08-30T15:08:14.25Z</time>
      </trkpt>
      <trkpt lat="47.94862" lon="6.89551">
        <ele>1026</ele>
        <time>2015-08-30T15:08:56.25Z</time>
      </trkpt>
      <trkpt lat="47.94849" lon="6.89542">
        <ele>1025</ele>
        <time>2015-08-30T15:09:04.253Z</time>
      </trkpt>
      <trkpt lat="47.94803" lon="6.89519">
        <ele>1016</ele>
        <time>2015-08-30T15:09:41.251Z</time>
      </trkpt>
      <trkpt lat="47.94788" lon="6.89513">
        <ele>1015</ele>
        <time>2015-08-30T15:09:55.25Z</time>
      </trkpt>
      <trkpt lat="47.94775" lon="6.895">
        <ele>1014</ele>
        <time>2015-08-30T15:10:04.25Z</time>
      </trkpt>
      <trkpt lat="47.94737" lon="6.89463">
        <ele>1006</ele>
        <time>2015-08-30T15:10:38.253Z</time>
      </trkpt>
      <trkpt lat="47.94715" lon="6.89443">
        <ele>1005</ele>
        <time>2015-08-30T15:10:57.25Z</time>
      </trkpt>
      <trkpt lat="47.94706" lon="6.89441">
        <ele>1005</ele>
        <time>2015-08-30T15:11:57.25Z</time>
      </trkpt>
      <trkpt lat="47.94722" lon="6.8944">
        <ele>1005</ele>
        <time>2015-08-30T15:12:52.246Z</time>
      </trkpt>
      <trkpt lat="47.9477" lon="6.89447">
        <ele>1010</ele>
        <time>2015-08-30T15:13:30.245Z</time>
      </trkpt>
      <trkpt lat="47.9482" lon="6.89467">
        <ele>1013</ele>
        <time>2015-08-30T15:14:11.243Z</time>
      </trkpt>
      <trkpt lat="47.9487" lon="6.89498">
        <ele>1019</ele>
        <time>2015-08-30T15:15:03.239Z</time>
      </trkpt>
      <trkpt lat="47.94916" lon="6.89518">
        <ele>1027</ele>
        <time>2015-08-30T15:15:45.235Z</time>
      </trkpt>
      <trkpt lat="47.94932" lon="6.89529">
        <ele>1035</ele>
        <time>2015-08-30T15:15:57.235Z</time>
      </trkpt>
      <trkpt lat="47.94969" lon="6.89541">
        <ele>1039</ele>
        <time>2015-08-30T15:16:33.235Z</time>
      </trkpt>
      <trkpt lat="47.95026" lon="6.89554">
        <ele>1048</ele>
        <time>2015-08-30T15:17:18.23Z</time>
      </trkpt>
      <trkpt lat="47.95071" lon="6.89559">
        <ele>1051</ele>
        <time>2015-08-30T15:17:58.224Z</time>
      </trkpt>
      <trkpt lat="47.9512" lon="6.89563">
        <ele>1058</ele>
        <time>2015-08-30T15:18:29.225Z</time>
      </trkpt>
      <trkpt lat="47.95138" lon="6.8956">
        <ele>1060</ele>
        <time>2015-08-30T15:19:29.225Z</time>
      </trkpt>
      <trkpt lat="47.95138" lon="6.89561">
        <ele>1060</ele>
        <time>2015-08-30T15:20:30.221Z</time>
      </trkpt>
      <trkpt lat="47.95138" lon="6.8956">
        <ele>1060</ele>
        <time>2015-08-30T15:21:30.223Z</time>
      </trkpt>
      <trkpt lat="47.95179" lon="6.89559">
        <ele>1065</ele>
        <time>2015-08-30T15:22:30.233Z</time>
      </trkpt>
      <trkpt lat="47.95207" lon="6.89574">
        <ele>1066</ele>
        <time>2015-08-30T15:22:56.224Z</time>
      </trkpt>
      <trkpt lat="47.95238" lon="6.89593">
        <ele>1074</ele>
        <time>2015-08-30T15:23:24.225Z</time>
      </trkpt>
      <trkpt lat="47.95251" lon="6.89601">
        <ele>1076</ele>
        <time>2015-08-30T15:23:37.221Z</time>
      </trkpt>
      <trkpt lat="47.95274" lon="6.89588">
        <ele>1076</ele>
        <time>2015-08-30T15:24:01.231Z</time>
      </trkpt>
      <trkpt lat="47.95303" lon="6.89637">
        <ele>1078</ele>
        <time>2015-08-30T15:24:32.235Z</time>
      </trkpt>
      <trkpt lat="47.95342" lon="6.8966">
        <ele>1079</ele>
        <time>2015-08-30T15:25:22.24Z</time>
      </trkpt>
      <trkpt lat="47.95388" lon="6.89679">
        <ele>1080</ele>
        <time>2015-08-30T15:26:02.235Z</time>
      </trkpt>
      <trkpt lat="47.95415" lon="6.89725">
        <ele>1081</ele>
        <time>2015-08-30T15:27:02.236Z</time>
      </trkpt>
      <trkpt lat="47.95415" lon="6.89746">
        <ele>1081</ele>
        <time>2015-08-30T15:28:02.236Z</time>
      </trkpt>
      <trkpt lat="47.95378" lon="6.89785">
        <ele>1082</ele>
        <time>2015-08-30T15:28:51.231Z</time>
      </trkpt>
      <trkpt lat="47.95379" lon="6.89804">
        <ele>1082</ele>
        <time>2015-08-30T15:29:51.231Z</time>
      </trkpt>
      <trkpt lat="47.95379" lon="6.89804">
        <ele>1082</ele>
        <time>2015-08-30T15:30:51.243Z</time>
      </trkpt>
      <trkpt lat="47.95408" lon="6.89844">
        <ele>1079</ele>
        <time>2015-08-30T15:31:52.236Z</time>
      </trkpt>
      <trkpt lat="47.95438" lon="6.89898">
        <ele>1076</ele>
        <time>2015-08-30T15:32:27.23Z</time>
      </trkpt>
      <trkpt lat="47.95468" lon="6.89949">
        <ele>1071</ele>
        <time>2015-08-30T15:33:00.22Z</time>
      </trkpt>
      <trkpt lat="47.95499" lon="6.89999">
        <ele>1068</ele>
        <time>2015-08-30T15:33:39.218Z</time>
      </trkpt>
      <trkpt lat="47.95554" lon="6.90055">
        <ele>1064</ele>
        <time>2015-08-30T15:34:40.211Z</time>
      </trkpt>
      <trkpt lat="47.95564" lon="6.90082">
        <ele>1065</ele>
        <time>2015-08-30T15:35:40.214Z</time>
      </trkpt>
      <trkpt lat="47.95568" lon="6.90121">
        <ele>1064</ele>
        <time>2015-08-30T15:36:21.223Z</time>
      </trkpt>
      <trkpt lat="47.95571" lon="6.90143">
        <ele>1064</ele>
        <time>2015-08-30T15:36:30.225Z</time>
      </trkpt>
      <trkpt lat="47.9558" lon="6.9013">
        <ele>1064</ele>
        <time>2015-08-30T15:37:30.254Z</time>
      </trkpt>
      <trkpt lat="47.95598" lon="6.90111">
        <ele>1067</ele>
        <time>2015-08-30T15:37:49.238Z</time>
      </trkpt>
      <trkpt lat="47.9564" lon="6.90072">
        <ele>1062</ele>
        <time>2015-08-30T15:38:43.246Z</time>
      </trkpt>
      <trkpt lat="47.95671" lon="6.90081">
        <ele>1063</ele>
        <time>2015-08-30T15:39:16.24Z</time>
      </trkpt>
      <trkpt lat="47.95717" lon="6.90087">
        <ele>1065</ele>
        <time>2015-08-30T15:39:52.233Z</time>
      </trkpt>
      <trkpt lat="47.95761" lon="6.90067">
        <ele>1056</ele>
        <time>2015-08-30T15:40:34.23Z</time>
      </trkpt>
      <trkpt lat="47.95796" lon="6.90052">
        <ele>1054</ele>
        <time>2015-08-30T15:41:04.236Z</time>
      </trkpt>
      <trkpt lat="47.95829" lon="6.9005">
        <ele>1055</ele>
        <time>2015-08-30T15:41:49.235Z</time>
      </trkpt>
      <trkpt lat="47.9588" lon="6.90072">
        <ele>1052</ele>
        <time>2015-08-30T15:42:29.215Z</time>
      </trkpt>
      <trkpt lat="47.959" lon="6.90084">
        <ele>1058</ele>
        <time>2015-08-30T15:42:45.215Z</time>
      </trkpt>
      <trkpt lat="47.95955" lon="6.90129">
        <ele>1055</ele>
        <time>2015-08-30T15:43:30.215Z</time>
      </trkpt>
      <trkpt lat="47.96002" lon="6.90179">
        <ele>1053</ele>
        <time>2015-08-30T15:44:06.209Z</time>
      </trkpt>
      <trkpt lat="47.96033" lon="6.90251">
        <ele>1063</ele>
        <time>2015-08-30T15:44:53.203Z</time>
      </trkpt>
      <trkpt lat="47.96058" lon="6.90328">
        <ele>1063</ele>
        <time>2015-08-30T15:45:35.198Z</time>
      </trkpt>
      <trkpt lat="47.96069" lon="6.90341">
        <ele>1068</ele>
        <time>2015-08-30T15:45:45.199Z</time>
      </trkpt>
      <trkpt lat="47.9608" lon="6.9036">
        <ele>1072</ele>
        <time>2015-08-30T15:45:56.199Z</time>
      </trkpt>
      <trkpt lat="47.96095" lon="6.90393">
        <ele>1060</ele>
        <time>2015-08-30T15:46:17.195Z</time>
      </trkpt>
      <trkpt lat="47.96099" lon="6.90413">
        <ele>1064</ele>
        <time>2015-08-30T15:46:29.195Z</time>
      </trkpt>
      <trkpt lat="47.96107" lon="6.90482">
        <ele>1073</ele>
        <time>2015-08-30T15:47:17.193Z</time>
      </trkpt>
      <trkpt lat="47.96109" lon="6.90549">
        <ele>1081</ele>
        <time>2015-08-30T15:47:52.193Z</time>
      </trkpt>
      <trkpt lat="47.96108" lon="6.90573">
        <ele>1084</ele>
        <time>2015-08-30T15:48:03.194Z</time>
      </trkpt>
      <trkpt lat="47.96113" lon="6.90593">
        <ele>1088</ele>
        <time>2015-08-30T15:48:14.194Z</time>
      </trkpt>
      <trkpt lat="47.96117" lon="6.90651">
        <ele>1089</ele>
        <time>2015-08-30T15:48:52.193Z</time>
      </trkpt>
      <trkpt lat="47.96101" lon="6.90715">
        <ele>1094</ele>
        <time>2015-08-30T15:49:33.2Z</time>
      </trkpt>
      <trkpt lat="47.96109" lon="6.90746">
        <ele>1095</ele>
        <time>2015-08-30T15:49:45.2Z</time>
      </trkpt>
      <trkpt lat="47.96113" lon="6.9077">
        <ele>1098</ele>
        <time>2015-08-30T15:49:56.195Z</time>
      </trkpt>
      <trkpt lat="47.96111" lon="6.9079">
        <ele>1098</ele>
        <time>2015-08-30T15:50:05.198Z</time>
      </trkpt>
      <trkpt lat="47.96118" lon="6.90809">
        <ele>1099</ele>
        <time>2015-08-30T15:50:19.196Z</time>
      </trkpt>
      <trkpt lat="47.96127" lon="6.90879">
        <ele>1104</ele>
        <time>2015-08-30T15:50:56.198Z</time>
      </trkpt>
      <trkpt lat="47.96147" lon="6.9094">
        <ele>1107</ele>
        <time>2015-08-30T15:51:36.19Z</time>
      </trkpt>
      <trkpt lat="47.96148" lon="6.90963">
        <ele>1108</ele>
        <time>2015-08-30T15:51:47.189Z</time>
      </trkpt>
      <trkpt lat="47.96164" lon="6.91027">
        <ele>1112</ele>
        <time>2015-08-30T15:52:22.185Z</time>
      </trkpt>
      <trkpt lat="47.96174" lon="6.91096">
        <ele>1110</ele>
        <time>2015-08-30T15:52:55.185Z</time>
      </trkpt>
      <trkpt lat="47.96178" lon="6.91173">
        <ele>1113</ele>
        <time>2015-08-30T15:53:31.181Z</time>
      </trkpt>
      <trkpt lat="47.96186" lon="6.91257">
        <ele>1113</ele>
        <time>2015-08-30T15:54:10.231Z</time>
      </trkpt>
      <trkpt lat="47.96187" lon="6.91349">
        <ele>1108</ele>
        <time>2015-08-30T15:55:00.226Z</time>
      </trkpt>
      <trkpt lat="47.96174" lon="6.91391">
        <ele>1106</ele>
        <time>2015-08-30T15:55:23.221Z</time>
      </trkpt>
      <trkpt lat="47.96169" lon="6.91411">
        <ele>1110</ele>
        <time>2015-08-30T15:55:33.219Z</time>
      </trkpt>
      <trkpt lat="47.96139" lon="6.91473">
        <ele>1112</ele>
        <time>2015-08-30T15:56:10.179Z</time>
      </trkpt>
      <trkpt lat="47.96127" lon="6.91505">
        <ele>1105</ele>
        <time>2015-08-30T15:56:29.181Z</time>
      </trkpt>
      <trkpt lat="47.96115" lon="6.9157">
        <ele>1103</ele>
        <time>2015-08-30T15:57:09.17Z</time>
      </trkpt>
      <trkpt lat="47.96107" lon="6.91638">
        <ele>1094</ele>
        <time>2015-08-30T15:57:45.17Z</time>
      </trkpt>
      <trkpt lat="47.96099" lon="6.91669">
        <ele>1093</ele>
        <time>2015-08-30T15:58:03.17Z</time>
      </trkpt>
      <trkpt lat="47.96095" lon="6.91726">
        <ele>1092</ele>
        <time>2015-08-30T15:58:26.18Z</time>
      </trkpt>
      <trkpt lat="47.96095" lon="6.91793">
        <ele>1092</ele>
        <time>2015-08-30T15:59:08.178Z</time>
      </trkpt>
      <trkpt lat="47.96093" lon="6.9186">
        <ele>1098</ele>
        <time>2015-08-30T15:59:51.171Z</time>
      </trkpt>
      <trkpt lat="47.96094" lon="6.91928">
        <ele>1109</ele>
        <time>2015-08-30T16:00:38.195Z</time>
      </trkpt>
      <trkpt lat="47.96084" lon="6.91994">
        <ele>1121</ele>
        <time>2015-08-30T16:01:29.154Z</time>
      </trkpt>
      <trkpt lat="47.96064" lon="6.92054">
        <ele>1134</ele>
        <time>2015-08-30T16:02:29.17Z</time>
      </trkpt>
      <trkpt lat="47.96041" lon="6.92121">
        <ele>1148</ele>
        <time>2015-08-30T16:03:27.173Z</time>
      </trkpt>
      <trkpt lat="47.96034" lon="6.92127">
        <ele>1149</ele>
        <time>2015-08-30T16:04:27.185Z</time>
      </trkpt>
      <trkpt lat="47.96021" lon="6.92117">
        <ele>1149</ele>
        <time>2015-08-30T16:04:42.179Z</time>
      </trkpt>
      <trkpt lat="47.95984" lon="6.92086">
        <ele>1150</ele>
        <time>2015-08-30T16:05:13.184Z</time>
      </trkpt>
    </trkseg>
  </trk>
</gpx>